<?xml version='1.0' encoding='UTF-8'?><gpx version="1.1" creator="JPX - https://github.com/jenetics/jpx" xmlns="http://www.topografix.com/GPX/1/1"><trk><trkseg><trkpt lat="39.0705861" lon="16.2863775"><ele>532.1428571428571</ele><time>2026-05-02T10:13:03.791Z</time></trkpt><trkpt lat="39.0705852" lon="16.286475"><ele>534.2857142857142</ele><time>2026-05-02T10:13:07.577Z</time></trkpt><trkpt lat="39.0705715" lon="16.2865731"><ele>536.4285714285714</ele><time>2026-05-02T10:13:12.669Z</time></trkpt><trkpt lat="39.0705458" lon="16.2866536"><ele>538.5714285714286</ele><time>2026-05-02T10:13:16.766Z</time></trkpt><trkpt lat="39.0705283" lon="16.2867383"><ele>540.7142857142858</ele><time>2026-05-02T10:13:20.412Z</time></trkpt><trkpt lat="39.0705127" lon="16.2868282"><ele>542.8571428571429</ele><time>2026-05-02T10:13:24.126Z</time></trkpt><trkpt lat="39.0704978" lon="16.2869226"><ele>545.0</ele><time>2026-05-02T10:13:28.217Z</time></trkpt><trkpt lat="39.0704952" lon="16.2870169"><ele>545.0</ele><time>2026-05-02T10:13:32.325Z</time></trkpt><trkpt lat="39.0704778" lon="16.2871021"><ele>545.0</ele><time>2026-05-02T10:13:36.822Z</time></trkpt><trkpt lat="39.0704942" lon="16.2871828"><ele>545.0</ele><time>2026-05-02T10:13:40.839Z</time></trkpt><trkpt lat="39.0704829" lon="16.2872638"><ele>545.0</ele><time>2026-05-02T10:13:44.671Z</time></trkpt><trkpt lat="39.0704692" lon="16.2873496"><ele>545.0</ele><time>2026-05-02T10:13:48.709Z</time></trkpt><trkpt lat="39.0704593" lon="16.2874407"><ele>545.0</ele><time>2026-05-02T10:13:52.842Z</time></trkpt><trkpt lat="39.0704515" lon="16.2875318"><ele>545.0</ele><time>2026-05-02T10:13:56.839Z</time></trkpt><trkpt lat="39.0704441" lon="16.2876248"><ele>546.4285714285714</ele><time>2026-05-02T10:14:00.85Z</time></trkpt><trkpt lat="39.0704519" lon="16.2877132"><ele>547.8571428571429</ele><time>2026-05-02T10:14:04.71Z</time></trkpt><trkpt lat="39.0704665" lon="16.2877989"><ele>549.2857142857143</ele><time>2026-05-02T10:14:08.386Z</time></trkpt><trkpt lat="39.0704944" lon="16.287885"><ele>550.7142857142858</ele><time>2026-05-02T10:14:12.446Z</time></trkpt><trkpt lat="39.0705397" lon="16.2879421"><ele>552.1428571428571</ele><time>2026-05-02T10:14:16.167Z</time></trkpt><trkpt lat="39.0706002" lon="16.2880059"><ele>553.5714285714287</ele><time>2026-05-02T10:14:20.839Z</time></trkpt><trkpt lat="39.0706415" lon="16.2880695"><ele>555.0</ele><time>2026-05-02T10:14:24.839Z</time></trkpt><trkpt lat="39.0706857" lon="16.28815"><ele>555.0000000000001</ele><time>2026-05-02T10:14:29.607Z</time></trkpt><trkpt lat="39.0707356" lon="16.2882251"><ele>555.0</ele><time>2026-05-02T10:14:34.207Z</time></trkpt><trkpt lat="39.0707883" lon="16.2882981"><ele>555.0</ele><time>2026-05-02T10:14:38.788Z</time></trkpt><trkpt lat="39.0708397" lon="16.2883565"><ele>555.0</ele><time>2026-05-02T10:14:42.839Z</time></trkpt><trkpt lat="39.0708805" lon="16.2884243"><ele>555.0</ele><time>2026-05-02T10:14:46.839Z</time></trkpt><trkpt lat="39.0708696" lon="16.2885129"><ele>555.0000000000001</ele><time>2026-05-02T10:14:50.75Z</time></trkpt><trkpt lat="39.0708173" lon="16.2885854"><ele>555.0</ele><time>2026-05-02T10:14:54.845Z</time></trkpt><trkpt lat="39.0707534" lon="16.288613"><ele>555.0000000000001</ele><time>2026-05-02T10:14:58.555Z</time></trkpt><trkpt lat="39.0706877" lon="16.2886078"><ele>555.0</ele><time>2026-05-02T10:15:02.265Z</time></trkpt><trkpt lat="39.0706221" lon="16.2885906"><ele>555.0</ele><time>2026-05-02T10:15:05.97Z</time></trkpt><trkpt lat="39.0705539" lon="16.2885874"><ele>555.0</ele><time>2026-05-02T10:15:09.839Z</time></trkpt><trkpt lat="39.0704873" lon="16.2885863"><ele>555.0</ele><time>2026-05-02T10:15:13.751Z</time></trkpt><trkpt lat="39.0704161" lon="16.2885991"><ele>555.0000000000001</ele><time>2026-05-02T10:15:17.85Z</time></trkpt><trkpt lat="39.0703527" lon="16.2886293"><ele>555.0</ele><time>2026-05-02T10:15:21.839Z</time></trkpt><trkpt lat="39.0702982" lon="16.2886722"><ele>555.0000000000001</ele><time>2026-05-02T10:15:25.705Z</time></trkpt><trkpt lat="39.070252" lon="16.2887463"><ele>555.0</ele><time>2026-05-02T10:15:30.305Z</time></trkpt><trkpt lat="39.0701951" lon="16.2888043"><ele>555.0</ele><time>2026-05-02T10:15:34.448Z</time></trkpt><trkpt lat="39.070151" lon="16.2888626"><ele>555.0</ele><time>2026-05-02T10:15:38.147Z</time></trkpt><trkpt lat="39.0701042" lon="16.2889172"><ele>555.0</ele><time>2026-05-02T10:15:41.83Z</time></trkpt><trkpt lat="39.0700887" lon="16.2890026"><ele>555.0000000000001</ele><time>2026-05-02T10:15:45.632Z</time></trkpt><trkpt lat="39.0700858" lon="16.2890985"><ele>555.0</ele><time>2026-05-02T10:15:49.84Z</time></trkpt><trkpt lat="39.0700617" lon="16.2891842"><ele>553.5714285714287</ele><time>2026-05-02T10:15:53.839Z</time></trkpt><trkpt lat="39.0700055" lon="16.2892327"><ele>552.1428571428571</ele><time>2026-05-02T10:15:57.839Z</time></trkpt><trkpt lat="39.0699384" lon="16.2892411"><ele>550.7142857142858</ele><time>2026-05-02T10:16:01.69Z</time></trkpt><trkpt lat="39.0698663" lon="16.2892486"><ele>549.2857142857143</ele><time>2026-05-02T10:16:05.83Z</time></trkpt><trkpt lat="39.0697982" lon="16.2892602"><ele>547.8571428571429</ele><time>2026-05-02T10:16:09.839Z</time></trkpt><trkpt lat="39.0697335" lon="16.2892807"><ele>546.4285714285714</ele><time>2026-05-02T10:16:13.67Z</time></trkpt><trkpt lat="39.0696708" lon="16.2893248"><ele>545.0</ele><time>2026-05-02T10:16:17.806Z</time></trkpt><trkpt lat="39.0696082" lon="16.2893825"><ele>545.0</ele><time>2026-05-02T10:16:22.403Z</time></trkpt><trkpt lat="39.0695526" lon="16.2894636"><ele>545.0</ele><time>2026-05-02T10:16:27.471Z</time></trkpt><trkpt lat="39.0695322" lon="16.2895503"><ele>545.0</ele><time>2026-05-02T10:16:32.032Z</time></trkpt><trkpt lat="39.0695023" lon="16.2896408"><ele>545.0</ele><time>2026-05-02T10:16:36.166Z</time></trkpt><trkpt lat="39.0694724" lon="16.2897146"><ele>545.0</ele><time>2026-05-02T10:16:39.874Z</time></trkpt><trkpt lat="39.0694488" lon="16.2897921"><ele>545.0</ele><time>2026-05-02T10:16:43.839Z</time></trkpt><trkpt lat="39.0694204" lon="16.2898841"><ele>545.0</ele><time>2026-05-02T10:16:48.605Z</time></trkpt><trkpt lat="39.0693894" lon="16.2899633"><ele>543.2857142857143</ele><time>2026-05-02T10:16:52.729Z</time></trkpt><trkpt lat="39.0693284" lon="16.2900395"><ele>541.5714285714287</ele><time>2026-05-02T10:16:57.787Z</time></trkpt><trkpt lat="39.0692783" lon="16.2900907"><ele>539.8571428571429</ele><time>2026-05-02T10:17:01.51Z</time></trkpt><trkpt lat="39.0692211" lon="16.29016"><ele>538.1428571428571</ele><time>2026-05-02T10:17:06.148Z</time></trkpt><trkpt lat="39.0691725" lon="16.2902122"><ele>536.4285714285713</ele><time>2026-05-02T10:17:09.843Z</time></trkpt><trkpt lat="39.0691262" lon="16.2902687"><ele>534.7142857142857</ele><time>2026-05-02T10:17:13.625Z</time></trkpt><trkpt lat="39.0690738" lon="16.2903415"><ele>533.0</ele><time>2026-05-02T10:17:18.226Z</time></trkpt><trkpt lat="39.0690207" lon="16.2904144"><ele>533.0</ele><time>2026-05-02T10:17:22.948Z</time></trkpt><trkpt lat="39.0689711" lon="16.2904917"><ele>533.0</ele><time>2026-05-02T10:17:27.711Z</time></trkpt><trkpt lat="39.0689219" lon="16.2905656"><ele>533.0</ele><time>2026-05-02T10:17:32.511Z</time></trkpt><trkpt lat="39.0688628" lon="16.2906275"><ele>533.0</ele><time>2026-05-02T10:17:37.246Z</time></trkpt><trkpt lat="39.0688126" lon="16.2907044"><ele>533.0</ele><time>2026-05-02T10:17:41.931Z</time></trkpt><trkpt lat="39.0687782" lon="16.2907755"><ele>533.0</ele><time>2026-05-02T10:17:45.84Z</time></trkpt><trkpt lat="39.0687463" lon="16.2908462"><ele>533.0</ele><time>2026-05-02T10:17:49.841Z</time></trkpt><trkpt lat="39.0687023" lon="16.2909291"><ele>536.1666666666666</ele><time>2026-05-02T10:17:54.55Z</time></trkpt><trkpt lat="39.0686715" lon="16.2910179"><ele>539.3333333333333</ele><time>2026-05-02T10:17:59.226Z</time></trkpt><trkpt lat="39.0686433" lon="16.2911097"><ele>542.5</ele><time>2026-05-02T10:18:03.989Z</time></trkpt><trkpt lat="39.0686116" lon="16.2911982"><ele>545.6666666666666</ele><time>2026-05-02T10:18:08.702Z</time></trkpt><trkpt lat="39.0685755" lon="16.2912848"><ele>548.8333333333334</ele><time>2026-05-02T10:18:13.465Z</time></trkpt><trkpt lat="39.0685471" lon="16.291376"><ele>552.0</ele><time>2026-05-02T10:18:18.265Z</time></trkpt><trkpt lat="39.0685202" lon="16.2914668"><ele>555.8571428571429</ele><time>2026-05-02T10:18:23.027Z</time></trkpt><trkpt lat="39.0685066" lon="16.2915623"><ele>559.7142857142858</ele><time>2026-05-02T10:18:27.687Z</time></trkpt><trkpt lat="39.0684877" lon="16.291648"><ele>563.5714285714286</ele><time>2026-05-02T10:18:31.839Z</time></trkpt><trkpt lat="39.0684643" lon="16.2917239"><ele>567.4285714285714</ele><time>2026-05-02T10:18:35.706Z</time></trkpt><trkpt lat="39.068429" lon="16.2917912"><ele>571.2857142857142</ele><time>2026-05-02T10:18:39.485Z</time></trkpt><trkpt lat="39.0683919" lon="16.2918759"><ele>575.1428571428571</ele><time>2026-05-02T10:18:44.21Z</time></trkpt><trkpt lat="39.0683577" lon="16.291966"><ele>579.0</ele><time>2026-05-02T10:18:48.926Z</time></trkpt><trkpt lat="39.0683261" lon="16.292064"><ele>578.9999999999999</ele><time>2026-05-02T10:18:53.839Z</time></trkpt><trkpt lat="39.0683059" lon="16.2921473"><ele>579.0</ele><time>2026-05-02T10:18:57.771Z</time></trkpt><trkpt lat="39.0682889" lon="16.2922307"><ele>579.0</ele><time>2026-05-02T10:19:01.839Z</time></trkpt><trkpt lat="39.0682557" lon="16.2923215"><ele>579.0</ele><time>2026-05-02T10:19:06.84Z</time></trkpt><trkpt lat="39.0682257" lon="16.2924135"><ele>579.0</ele><time>2026-05-02T10:19:11.811Z</time></trkpt><trkpt lat="39.0681901" lon="16.2924999"><ele>578.9999999999999</ele><time>2026-05-02T10:19:16.435Z</time></trkpt><trkpt lat="39.0681568" lon="16.2925901"><ele>579.0</ele><time>2026-05-02T10:19:21.086Z</time></trkpt><trkpt lat="39.0681378" lon="16.2926686"><ele>578.4285714285713</ele><time>2026-05-02T10:19:24.839Z</time></trkpt><trkpt lat="39.0681162" lon="16.2927503"><ele>577.8571428571429</ele><time>2026-05-02T10:19:28.839Z</time></trkpt><trkpt lat="39.0680914" lon="16.2928447"><ele>577.2857142857142</ele><time>2026-05-02T10:19:33.526Z</time></trkpt><trkpt lat="39.0680631" lon="16.2929323"><ele>576.7142857142857</ele><time>2026-05-02T10:19:37.839Z</time></trkpt><trkpt lat="39.0680439" lon="16.2930118"><ele>576.1428571428571</ele><time>2026-05-02T10:19:41.669Z</time></trkpt><trkpt lat="39.068022" lon="16.2931001"><ele>575.5714285714286</ele><time>2026-05-02T10:19:45.839Z</time></trkpt><trkpt lat="39.0680037" lon="16.2931858"><ele>575.0</ele><time>2026-05-02T10:19:49.839Z</time></trkpt><trkpt lat="39.0679869" lon="16.2932676"><ele>575.0</ele><time>2026-05-02T10:19:53.585Z</time></trkpt><trkpt lat="39.0679592" lon="16.2933593"><ele>575.0</ele><time>2026-05-02T10:19:58.185Z</time></trkpt><trkpt lat="39.0679227" lon="16.2934482"><ele>575.0</ele><time>2026-05-02T10:20:02.85Z</time></trkpt><trkpt lat="39.0678894" lon="16.2935394"><ele>575.0</ele><time>2026-05-02T10:20:07.527Z</time></trkpt><trkpt lat="39.0678698" lon="16.2936173"><ele>575.0</ele><time>2026-05-02T10:20:11.309Z</time></trkpt><trkpt lat="39.0678476" lon="16.2937135"><ele>575.0</ele><time>2026-05-02T10:20:16.032Z</time></trkpt><trkpt lat="39.0678332" lon="16.2938104"><ele>575.0</ele><time>2026-05-02T10:20:20.839Z</time></trkpt><trkpt lat="39.0678234" lon="16.2938935"><ele>575.0</ele><time>2026-05-02T10:20:24.852Z</time></trkpt><trkpt lat="39.067792" lon="16.2939865"><ele>575.0</ele><time>2026-05-02T10:20:29.839Z</time></trkpt><trkpt lat="39.0677466" lon="16.2940653"><ele>575.0</ele><time>2026-05-02T10:20:34.607Z</time></trkpt><trkpt lat="39.0676919" lon="16.2941193"><ele>575.0</ele><time>2026-05-02T10:20:38.853Z</time></trkpt><trkpt lat="39.0676275" lon="16.2941656"><ele>575.0</ele><time>2026-05-02T10:20:43.471Z</time></trkpt><trkpt lat="39.0675567" lon="16.2942019"><ele>575.0</ele><time>2026-05-02T10:20:48.219Z</time></trkpt><trkpt lat="39.0674896" lon="16.2942262"><ele>573.2857142857142</ele><time>2026-05-02T10:20:52.386Z</time></trkpt><trkpt lat="39.067421" lon="16.2942687"><ele>571.5714285714286</ele><time>2026-05-02T10:20:57.091Z</time></trkpt><trkpt lat="39.0673736" lon="16.2943273"><ele>569.8571428571429</ele><time>2026-05-02T10:21:00.825Z</time></trkpt><trkpt lat="39.0673365" lon="16.2944066"><ele>568.1428571428571</ele><time>2026-05-02T10:21:05.51Z</time></trkpt><trkpt lat="39.0673217" lon="16.2945033"><ele>566.4285714285714</ele><time>2026-05-02T10:21:10.205Z</time></trkpt><trkpt lat="39.0673135" lon="16.2945839"><ele>564.7142857142857</ele><time>2026-05-02T10:21:13.91Z</time></trkpt><trkpt lat="39.0672969" lon="16.2946875"><ele>563.0</ele><time>2026-05-02T10:21:18.839Z</time></trkpt><trkpt lat="39.0672832" lon="16.2947721"><ele>563.0</ele><time>2026-05-02T10:21:22.839Z</time></trkpt><trkpt lat="39.06727" lon="16.2948552"><ele>563.0</ele><time>2026-05-02T10:21:26.749Z</time></trkpt><trkpt lat="39.067256" lon="16.2949539"><ele>563.0</ele><time>2026-05-02T10:21:31.426Z</time></trkpt><trkpt lat="39.0672406" lon="16.2950335"><ele>563.0</ele><time>2026-05-02T10:21:35.169Z</time></trkpt><trkpt lat="39.0672223" lon="16.295128"><ele>563.0</ele><time>2026-05-02T10:21:39.789Z</time></trkpt><trkpt lat="39.0672087" lon="16.2952077"><ele>563.0</ele><time>2026-05-02T10:21:43.531Z</time></trkpt><trkpt lat="39.0671899" lon="16.2952913"><ele>563.0</ele><time>2026-05-02T10:21:47.265Z</time></trkpt><trkpt lat="39.067171" lon="16.2953791"><ele>563.0</ele><time>2026-05-02T10:21:52.066Z</time></trkpt><trkpt lat="39.0671519" lon="16.2954738"><ele>563.0</ele><time>2026-05-02T10:21:56.809Z</time></trkpt><trkpt lat="39.0671365" lon="16.2955525"><ele>563.0</ele><time>2026-05-02T10:22:00.646Z</time></trkpt><trkpt lat="39.0671211" lon="16.2956482"><ele>563.0</ele><time>2026-05-02T10:22:05.371Z</time></trkpt><trkpt lat="39.0671029" lon="16.2957428"><ele>563.0</ele><time>2026-05-02T10:22:10.155Z</time></trkpt><trkpt lat="39.0670858" lon="16.2958348"><ele>563.0</ele><time>2026-05-02T10:22:14.84Z</time></trkpt><trkpt lat="39.0670693" lon="16.2959301"><ele>563.0</ele><time>2026-05-02T10:22:19.609Z</time></trkpt><trkpt lat="39.0670503" lon="16.2960224"><ele>564.5714285714286</ele><time>2026-05-02T10:22:24.307Z</time></trkpt><trkpt lat="39.0670313" lon="16.2961128"><ele>566.1428571428571</ele><time>2026-05-02T10:22:29.013Z</time></trkpt><trkpt lat="39.0670154" lon="16.2962063"><ele>567.7142857142858</ele><time>2026-05-02T10:22:33.686Z</time></trkpt><trkpt lat="39.0669959" lon="16.2962979"><ele>569.2857142857142</ele><time>2026-05-02T10:22:38.373Z</time></trkpt><trkpt lat="39.0669795" lon="16.2963925"><ele>570.8571428571429</ele><time>2026-05-02T10:22:43.088Z</time></trkpt><trkpt lat="39.0669667" lon="16.296472"><ele>572.4285714285714</ele><time>2026-05-02T10:22:46.848Z</time></trkpt><trkpt lat="39.0669555" lon="16.2965693"><ele>574.0</ele><time>2026-05-02T10:22:51.546Z</time></trkpt><trkpt lat="39.0669439" lon="16.2966647"><ele>576.4285714285714</ele><time>2026-05-02T10:22:56.268Z</time></trkpt><trkpt lat="39.0669342" lon="16.2967576"><ele>578.8571428571429</ele><time>2026-05-02T10:23:00.965Z</time></trkpt><trkpt lat="39.0669144" lon="16.2968508"><ele>581.2857142857142</ele><time>2026-05-02T10:23:05.707Z</time></trkpt><trkpt lat="39.0668883" lon="16.2969271"><ele>583.7142857142858</ele><time>2026-05-02T10:23:09.474Z</time></trkpt><trkpt lat="39.0668411" lon="16.2969875"><ele>586.1428571428571</ele><time>2026-05-02T10:23:14.224Z</time></trkpt><trkpt lat="39.0667855" lon="16.297031"><ele>588.5714285714286</ele><time>2026-05-02T10:23:18.488Z</time></trkpt><trkpt lat="39.0667203" lon="16.2970771"><ele>591.0</ele><time>2026-05-02T10:23:23.231Z</time></trkpt><trkpt lat="39.0666601" lon="16.2971263"><ele>590.7142857142857</ele><time>2026-05-02T10:23:27.985Z</time></trkpt><trkpt lat="39.0665951" lon="16.2971849"><ele>590.4285714285714</ele><time>2026-05-02T10:23:32.746Z</time></trkpt><trkpt lat="39.0665395" lon="16.2972332"><ele>590.1428571428571</ele><time>2026-05-02T10:23:37.475Z</time></trkpt><trkpt lat="39.0664752" lon="16.2972901"><ele>589.8571428571429</ele><time>2026-05-02T10:23:42.327Z</time></trkpt><trkpt lat="39.0664147" lon="16.2973465"><ele>589.5714285714286</ele><time>2026-05-02T10:23:47.253Z</time></trkpt><trkpt lat="39.0663588" lon="16.2974066"><ele>589.2857142857142</ele><time>2026-05-02T10:23:52.09Z</time></trkpt><trkpt lat="39.0663068" lon="16.2974659"><ele>589.0</ele><time>2026-05-02T10:23:56.838Z</time></trkpt><trkpt lat="39.0662623" lon="16.2975435"><ele>589.0</ele><time>2026-05-02T10:24:01.709Z</time></trkpt><trkpt lat="39.0662319" lon="16.2976336"><ele>589.0</ele><time>2026-05-02T10:24:06.848Z</time></trkpt><trkpt lat="39.0662171" lon="16.2977275"><ele>589.0</ele><time>2026-05-02T10:24:11.84Z</time></trkpt><trkpt lat="39.0662136" lon="16.2978119"><ele>589.0</ele><time>2026-05-02T10:24:15.825Z</time></trkpt><trkpt lat="39.0662058" lon="16.2979049"><ele>589.0</ele><time>2026-05-02T10:24:19.646Z</time></trkpt><trkpt lat="39.0662099" lon="16.298002"><ele>589.0</ele><time>2026-05-02T10:24:24.463Z</time></trkpt><trkpt lat="39.0662" lon="16.298095"><ele>589.0</ele><time>2026-05-02T10:24:28.838Z</time></trkpt><trkpt lat="39.0661861" lon="16.2981783"><ele>592.4285714285714</ele><time>2026-05-02T10:24:32.846Z</time></trkpt><trkpt lat="39.0661664" lon="16.2982745"><ele>595.8571428571428</ele><time>2026-05-02T10:24:37.769Z</time></trkpt><trkpt lat="39.0661472" lon="16.2983675"><ele>599.2857142857142</ele><time>2026-05-02T10:24:42.712Z</time></trkpt><trkpt lat="39.0661222" lon="16.2984536"><ele>602.7142857142857</ele><time>2026-05-02T10:24:47.712Z</time></trkpt><trkpt lat="39.0660975" lon="16.2985376"><ele>606.1428571428571</ele><time>2026-05-02T10:24:52.608Z</time></trkpt><trkpt lat="39.0660707" lon="16.2986207"><ele>609.5714285714286</ele><time>2026-05-02T10:24:57.531Z</time></trkpt><trkpt lat="39.0660429" lon="16.2987034"><ele>613.0</ele><time>2026-05-02T10:25:02.388Z</time></trkpt><trkpt lat="39.0660045" lon="16.2987829"><ele>613.0</ele><time>2026-05-02T10:25:07.245Z</time></trkpt><trkpt lat="39.0659434" lon="16.2988341"><ele>613.0</ele><time>2026-05-02T10:25:12.132Z</time></trkpt><trkpt lat="39.0658669" lon="16.2988227"><ele>613.0</ele><time>2026-05-02T10:25:17.008Z</time></trkpt><trkpt lat="39.0658178" lon="16.2987609"><ele>613.0</ele><time>2026-05-02T10:25:20.97Z</time></trkpt><trkpt lat="39.0657863" lon="16.2986803"><ele>613.0</ele><time>2026-05-02T10:25:24.89Z</time></trkpt><trkpt lat="39.0657401" lon="16.2986076"><ele>613.0</ele><time>2026-05-02T10:25:29.828Z</time></trkpt><trkpt lat="39.0656941" lon="16.2985402"><ele>613.0</ele><time>2026-05-02T10:25:34.667Z</time></trkpt><trkpt lat="39.0656495" lon="16.2984621"><ele>614.1666666666667</ele><time>2026-05-02T10:25:39.838Z</time></trkpt><trkpt lat="39.0656007" lon="16.2983865"><ele>615.3333333333334</ele><time>2026-05-02T10:25:44.81Z</time></trkpt><trkpt lat="39.0655527" lon="16.2983137"><ele>616.5</ele><time>2026-05-02T10:25:49.526Z</time></trkpt><trkpt lat="39.065507" lon="16.2982374"><ele>617.6666666666666</ele><time>2026-05-02T10:25:54.327Z</time></trkpt><trkpt lat="39.0654618" lon="16.298166"><ele>618.8333333333333</ele><time>2026-05-02T10:25:59.126Z</time></trkpt><trkpt lat="39.0653986" lon="16.2981114"><ele>620.0</ele><time>2026-05-02T10:26:03.963Z</time></trkpt><trkpt lat="39.0653295" lon="16.2980661"><ele>619.4285714285714</ele><time>2026-05-02T10:26:08.746Z</time></trkpt><trkpt lat="39.065248" lon="16.2980394"><ele>618.8571428571429</ele><time>2026-05-02T10:26:13.468Z</time></trkpt><trkpt lat="39.0651799" lon="16.298029"><ele>618.2857142857142</ele><time>2026-05-02T10:26:18.156Z</time></trkpt><trkpt lat="39.0651144" lon="16.2980218"><ele>617.7142857142858</ele><time>2026-05-02T10:26:21.887Z</time></trkpt><trkpt lat="39.0650459" lon="16.2980197"><ele>617.1428571428571</ele><time>2026-05-02T10:26:25.745Z</time></trkpt><trkpt lat="39.0649841" lon="16.2980364"><ele>616.5714285714286</ele><time>2026-05-02T10:26:29.585Z</time></trkpt><trkpt lat="39.0649287" lon="16.2980784"><ele>616.0</ele><time>2026-05-02T10:26:33.384Z</time></trkpt><trkpt lat="39.0648952" lon="16.2981543"><ele>616.0</ele><time>2026-05-02T10:26:37.23Z</time></trkpt><trkpt lat="39.064863" lon="16.2982271"><ele>616.0</ele><time>2026-05-02T10:26:41.126Z</time></trkpt><trkpt lat="39.064825" lon="16.2983139"><ele>616.0</ele><time>2026-05-02T10:26:45.831Z</time></trkpt><trkpt lat="39.0647847" lon="16.2983802"><ele>616.0</ele><time>2026-05-02T10:26:49.713Z</time></trkpt><trkpt lat="39.0647414" lon="16.2984616"><ele>616.0</ele><time>2026-05-02T10:26:54.603Z</time></trkpt><trkpt lat="39.0646998" lon="16.2985389"><ele>616.0</ele><time>2026-05-02T10:26:59.404Z</time></trkpt><trkpt lat="39.0646685" lon="16.2986193"><ele>616.0</ele><time>2026-05-02T10:27:04.224Z</time></trkpt><trkpt lat="39.0646418" lon="16.2987103"><ele>616.0</ele><time>2026-05-02T10:27:09.052Z</time></trkpt><trkpt lat="39.0646276" lon="16.2988022"><ele>616.0</ele><time>2026-05-02T10:27:13.928Z</time></trkpt><trkpt lat="39.0646154" lon="16.298897"><ele>616.0</ele><time>2026-05-02T10:27:18.786Z</time></trkpt><trkpt lat="39.0645994" lon="16.2989985"><ele>616.0</ele><time>2026-05-02T10:27:23.729Z</time></trkpt><trkpt lat="39.0645827" lon="16.2990828"><ele>616.0</ele><time>2026-05-02T10:27:28.747Z</time></trkpt><trkpt lat="39.0645653" lon="16.2991717"><ele>616.0</ele><time>2026-05-02T10:27:33.786Z</time></trkpt><trkpt lat="39.0645447" lon="16.2992566"><ele>616.0</ele><time>2026-05-02T10:27:38.838Z</time></trkpt><trkpt lat="39.0645199" lon="16.2993423"><ele>616.5714285714286</ele><time>2026-05-02T10:27:43.838Z</time></trkpt><trkpt lat="39.0644923" lon="16.2994252"><ele>617.1428571428571</ele><time>2026-05-02T10:27:48.838Z</time></trkpt><trkpt lat="39.0644691" lon="16.2995083"><ele>617.7142857142858</ele><time>2026-05-02T10:27:53.838Z</time></trkpt><trkpt lat="39.0644427" lon="16.2995908"><ele>618.2857142857142</ele><time>2026-05-02T10:27:58.838Z</time></trkpt><trkpt lat="39.0644143" lon="16.2996744"><ele>618.8571428571429</ele><time>2026-05-02T10:28:03.866Z</time></trkpt><trkpt lat="39.0643749" lon="16.2997394"><ele>619.4285714285714</ele><time>2026-05-02T10:28:08.838Z</time></trkpt><trkpt lat="39.0643206" lon="16.2997948"><ele>620.0</ele><time>2026-05-02T10:28:13.838Z</time></trkpt><trkpt lat="39.0642657" lon="16.2998454"><ele>623.1428571428571</ele><time>2026-05-02T10:28:18.838Z</time></trkpt><trkpt lat="39.0642062" lon="16.2998988"><ele>626.2857142857142</ele><time>2026-05-02T10:28:23.839Z</time></trkpt><trkpt lat="39.0641467" lon="16.2999509"><ele>629.4285714285713</ele><time>2026-05-02T10:28:28.838Z</time></trkpt><trkpt lat="39.0640845" lon="16.2999961"><ele>632.5714285714286</ele><time>2026-05-02T10:28:33.838Z</time></trkpt><trkpt lat="39.0640182" lon="16.3000311"><ele>635.7142857142857</ele><time>2026-05-02T10:28:38.838Z</time></trkpt><trkpt lat="39.0639566" lon="16.3000635"><ele>638.8571428571428</ele><time>2026-05-02T10:28:43.838Z</time></trkpt><trkpt lat="39.063887" lon="16.3000652"><ele>642.0</ele><time>2026-05-02T10:28:48.838Z</time></trkpt><trkpt lat="39.0638127" lon="16.3000554"><ele>642.7142857142857</ele><time>2026-05-02T10:28:52.839Z</time></trkpt><trkpt lat="39.063743" lon="16.300047"><ele>643.4285714285714</ele><time>2026-05-02T10:28:55.838Z</time></trkpt><trkpt lat="39.0636736" lon="16.3000421"><ele>644.1428571428571</ele><time>2026-05-02T10:28:58.838Z</time></trkpt><trkpt lat="39.0636015" lon="16.3000312"><ele>644.8571428571429</ele><time>2026-05-02T10:29:01.839Z</time></trkpt><trkpt lat="39.0635319" lon="16.3000053"><ele>645.5714285714286</ele><time>2026-05-02T10:29:04.838Z</time></trkpt><trkpt lat="39.0634673" lon="16.2999567"><ele>646.2857142857142</ele><time>2026-05-02T10:29:07.838Z</time></trkpt><trkpt lat="39.0634197" lon="16.2998786"><ele>647.0</ele><time>2026-05-02T10:29:10.838Z</time></trkpt><trkpt lat="39.0634041" lon="16.2997816"><ele>646.7142857142857</ele><time>2026-05-02T10:29:13.838Z</time></trkpt><trkpt lat="39.0634085" lon="16.2996852"><ele>646.4285714285714</ele><time>2026-05-02T10:29:16.828Z</time></trkpt><trkpt lat="39.0634174" lon="16.2995921"><ele>646.1428571428571</ele><time>2026-05-02T10:29:19.751Z</time></trkpt><trkpt lat="39.063432" lon="16.2994982"><ele>645.8571428571429</ele><time>2026-05-02T10:29:22.838Z</time></trkpt><trkpt lat="39.0634588" lon="16.2994137"><ele>645.5714285714286</ele><time>2026-05-02T10:29:25.838Z</time></trkpt><trkpt lat="39.0634931" lon="16.2993343"><ele>645.2857142857143</ele><time>2026-05-02T10:29:28.828Z</time></trkpt><trkpt lat="39.0635225" lon="16.2992501"><ele>645.0</ele><time>2026-05-02T10:29:31.838Z</time></trkpt><trkpt lat="39.0635368" lon="16.2991592"><ele>645.0</ele><time>2026-05-02T10:29:34.838Z</time></trkpt><trkpt lat="39.0635508" lon="16.2990696"><ele>645.0</ele><time>2026-05-02T10:29:37.79Z</time></trkpt><trkpt lat="39.0635701" lon="16.2989841"><ele>645.0</ele><time>2026-05-02T10:29:40.838Z</time></trkpt><trkpt lat="39.0635967" lon="16.2989015"><ele>645.0</ele><time>2026-05-02T10:29:43.838Z</time></trkpt><trkpt lat="39.0636195" lon="16.2988104"><ele>645.0</ele><time>2026-05-02T10:29:46.838Z</time></trkpt><trkpt lat="39.0636249" lon="16.2987149"><ele>645.0</ele><time>2026-05-02T10:29:49.838Z</time></trkpt><trkpt lat="39.0636253" lon="16.2986179"><ele>645.0</ele><time>2026-05-02T10:29:52.838Z</time></trkpt><trkpt lat="39.0636279" lon="16.2985209"><ele>645.5</ele><time>2026-05-02T10:29:55.838Z</time></trkpt><trkpt lat="39.0636386" lon="16.2984226"><ele>646.0</ele><time>2026-05-02T10:29:58.827Z</time></trkpt><trkpt lat="39.0636698" lon="16.2983369"><ele>646.5</ele><time>2026-05-02T10:30:01.839Z</time></trkpt><trkpt lat="39.0637052" lon="16.2982511"><ele>647.0</ele><time>2026-05-02T10:30:04.847Z</time></trkpt><trkpt lat="39.0637494" lon="16.2981735"><ele>647.5</ele><time>2026-05-02T10:30:07.838Z</time></trkpt><trkpt lat="39.0637898" lon="16.2980863"><ele>648.0</ele><time>2026-05-02T10:30:10.838Z</time></trkpt><trkpt lat="39.0638204" lon="16.2980027"><ele>649.4285714285714</ele><time>2026-05-02T10:30:13.743Z</time></trkpt><trkpt lat="39.0638422" lon="16.2979045"><ele>650.8571428571429</ele><time>2026-05-02T10:30:16.838Z</time></trkpt><trkpt lat="39.0638625" lon="16.2978132"><ele>652.2857142857142</ele><time>2026-05-02T10:30:19.828Z</time></trkpt><trkpt lat="39.0638779" lon="16.2977197"><ele>653.7142857142858</ele><time>2026-05-02T10:30:22.839Z</time></trkpt><trkpt lat="39.0638882" lon="16.2976302"><ele>655.1428571428571</ele><time>2026-05-02T10:30:25.839Z</time></trkpt><trkpt lat="39.0638954" lon="16.2975454"><ele>656.5714285714286</ele><time>2026-05-02T10:30:28.838Z</time></trkpt><trkpt lat="39.0639061" lon="16.2974605"><ele>658.0</ele><time>2026-05-02T10:30:31.839Z</time></trkpt><trkpt lat="39.0639169" lon="16.297372"><ele>658.0</ele><time>2026-05-02T10:30:34.746Z</time></trkpt><trkpt lat="39.0639335" lon="16.2972787"><ele>658.0</ele><time>2026-05-02T10:30:37.839Z</time></trkpt><trkpt lat="39.0639452" lon="16.2971899"><ele>658.0</ele><time>2026-05-02T10:30:40.838Z</time></trkpt><trkpt lat="39.0639548" lon="16.2971035"><ele>658.0</ele><time>2026-05-02T10:30:43.838Z</time></trkpt><trkpt lat="39.06395" lon="16.2970179"><ele>658.0</ele><time>2026-05-02T10:30:46.772Z</time></trkpt><trkpt lat="39.0639427" lon="16.2969306"><ele>658.0</ele><time>2026-05-02T10:30:49.838Z</time></trkpt><trkpt lat="39.0639447" lon="16.2968471"><ele>658.0</ele><time>2026-05-02T10:30:52.791Z</time></trkpt><trkpt lat="39.0639797" lon="16.2967504"><ele>658.5714285714286</ele><time>2026-05-02T10:30:56.81Z</time></trkpt><trkpt lat="39.0640267" lon="16.2966834"><ele>659.1428571428571</ele><time>2026-05-02T10:30:59.85Z</time></trkpt><trkpt lat="39.0640717" lon="16.2966182"><ele>659.7142857142858</ele><time>2026-05-02T10:31:02.838Z</time></trkpt><trkpt lat="39.0641155" lon="16.2965476"><ele>660.2857142857142</ele><time>2026-05-02T10:31:05.838Z</time></trkpt><trkpt lat="39.0641609" lon="16.2964692"><ele>660.8571428571429</ele><time>2026-05-02T10:31:08.838Z</time></trkpt><trkpt lat="39.0642083" lon="16.2963888"><ele>661.4285714285714</ele><time>2026-05-02T10:31:11.871Z</time></trkpt><trkpt lat="39.0642517" lon="16.296316"><ele>662.0</ele><time>2026-05-02T10:31:14.763Z</time></trkpt><trkpt lat="39.0642997" lon="16.2962394"><ele>654.8571428571429</ele><time>2026-05-02T10:31:17.839Z</time></trkpt><trkpt lat="39.0643442" lon="16.296163"><ele>647.7142857142857</ele><time>2026-05-02T10:31:20.838Z</time></trkpt><trkpt lat="39.0643926" lon="16.2960928"><ele>640.5714285714286</ele><time>2026-05-02T10:31:23.838Z</time></trkpt><trkpt lat="39.0644484" lon="16.2960302"><ele>633.4285714285714</ele><time>2026-05-02T10:31:26.83Z</time></trkpt><trkpt lat="39.0644986" lon="16.295973"><ele>626.2857142857143</ele><time>2026-05-02T10:31:29.763Z</time></trkpt><trkpt lat="39.0645391" lon="16.2958955"><ele>619.1428571428571</ele><time>2026-05-02T10:31:32.838Z</time></trkpt><trkpt lat="39.0645665" lon="16.2958134"><ele>612.0</ele><time>2026-05-02T10:31:35.838Z</time></trkpt><trkpt lat="39.0645693" lon="16.2957192"><ele>612.0</ele><time>2026-05-02T10:31:38.838Z</time></trkpt><trkpt lat="39.0645411" lon="16.2956309"><ele>612.0</ele><time>2026-05-02T10:31:41.838Z</time></trkpt><trkpt lat="39.0644996" lon="16.2955538"><ele>612.0</ele><time>2026-05-02T10:31:44.872Z</time></trkpt><trkpt lat="39.0644611" lon="16.2954785"><ele>612.0</ele><time>2026-05-02T10:31:47.83Z</time></trkpt><trkpt lat="39.0644199" lon="16.2953935"><ele>612.0</ele><time>2026-05-02T10:31:50.81Z</time></trkpt><trkpt lat="39.0643796" lon="16.2953096"><ele>612.0</ele><time>2026-05-02T10:31:53.839Z</time></trkpt><trkpt lat="39.0643339" lon="16.2952218"><ele>609.5</ele><time>2026-05-02T10:31:56.838Z</time></trkpt><trkpt lat="39.0642948" lon="16.2951301"><ele>607.0</ele><time>2026-05-02T10:31:59.839Z</time></trkpt><trkpt lat="39.0642695" lon="16.2950344"><ele>604.5</ele><time>2026-05-02T10:32:02.838Z</time></trkpt><trkpt lat="39.0642496" lon="16.2949411"><ele>602.0</ele><time>2026-05-02T10:32:05.848Z</time></trkpt><trkpt lat="39.0642293" lon="16.2948513"><ele>599.5</ele><time>2026-05-02T10:32:08.81Z</time></trkpt><trkpt lat="39.0642007" lon="16.2947647"><ele>597.0</ele><time>2026-05-02T10:32:11.838Z</time></trkpt><trkpt lat="39.0641643" lon="16.2946877"><ele>595.1428571428572</ele><time>2026-05-02T10:32:14.838Z</time></trkpt><trkpt lat="39.0641226" lon="16.2946059"><ele>593.2857142857143</ele><time>2026-05-02T10:32:18.839Z</time></trkpt><trkpt lat="39.0640859" lon="16.2945322"><ele>591.4285714285714</ele><time>2026-05-02T10:32:21.838Z</time></trkpt><trkpt lat="39.0640488" lon="16.2944537"><ele>589.5714285714287</ele><time>2026-05-02T10:32:24.838Z</time></trkpt><trkpt lat="39.0640219" lon="16.294369"><ele>587.7142857142858</ele><time>2026-05-02T10:32:27.839Z</time></trkpt><trkpt lat="39.0639873" lon="16.2942806"><ele>585.8571428571429</ele><time>2026-05-02T10:32:30.838Z</time></trkpt><trkpt lat="39.0639441" lon="16.2941979"><ele>584.0</ele><time>2026-05-02T10:32:33.839Z</time></trkpt><trkpt lat="39.0638961" lon="16.2941194"><ele>588.2857142857142</ele><time>2026-05-02T10:32:36.838Z</time></trkpt><trkpt lat="39.0638449" lon="16.2940454"><ele>592.5714285714286</ele><time>2026-05-02T10:32:39.838Z</time></trkpt><trkpt lat="39.0637883" lon="16.2940085"><ele>596.8571428571429</ele><time>2026-05-02T10:32:42.838Z</time></trkpt><trkpt lat="39.0637299" lon="16.2939753"><ele>601.1428571428571</ele><time>2026-05-02T10:32:45.838Z</time></trkpt><trkpt lat="39.0636689" lon="16.2939213"><ele>605.4285714285714</ele><time>2026-05-02T10:32:49.838Z</time></trkpt><trkpt lat="39.0636651" lon="16.2938201"><ele>609.7142857142857</ele><time>2026-05-02T10:32:53.745Z</time></trkpt><trkpt lat="39.0637133" lon="16.2937552"><ele>614.0</ele><time>2026-05-02T10:32:57.506Z</time></trkpt><trkpt lat="39.063777" lon="16.2936989"><ele>614.9999999999999</ele><time>2026-05-02T10:33:02.107Z</time></trkpt><trkpt lat="39.0638376" lon="16.293666"><ele>616.0</ele><time>2026-05-02T10:33:05.868Z</time></trkpt><trkpt lat="39.0639011" lon="16.2936422"><ele>617.0</ele><time>2026-05-02T10:33:09.726Z</time></trkpt><trkpt lat="39.0639739" lon="16.2936004"><ele>618.0</ele><time>2026-05-02T10:33:14.603Z</time></trkpt><trkpt lat="39.0640284" lon="16.2935569"><ele>619.0</ele><time>2026-05-02T10:33:18.506Z</time></trkpt><trkpt lat="39.0640875" lon="16.2934945"><ele>619.9999999999999</ele><time>2026-05-02T10:33:23.217Z</time></trkpt><trkpt lat="39.0641485" lon="16.2934367"><ele>621.0</ele><time>2026-05-02T10:33:28.038Z</time></trkpt><trkpt lat="39.0641978" lon="16.29338"><ele>618.9999999999999</ele><time>2026-05-02T10:33:32.44Z</time></trkpt><trkpt lat="39.0642498" lon="16.2933108"><ele>617.0</ele><time>2026-05-02T10:33:37.563Z</time></trkpt><trkpt lat="39.0642857" lon="16.2932292"><ele>615.0</ele><time>2026-05-02T10:33:42.819Z</time></trkpt><trkpt lat="39.0642984" lon="16.2931433"><ele>613.0</ele><time>2026-05-02T10:33:47.839Z</time></trkpt><trkpt lat="39.0642842" lon="16.2930594"><ele>611.0</ele><time>2026-05-02T10:33:53.839Z</time></trkpt><trkpt lat="39.0642523" lon="16.2929803"><ele>608.9999999999999</ele><time>2026-05-02T10:33:59.867Z</time></trkpt><trkpt lat="39.0642247" lon="16.2929061"><ele>607.0</ele><time>2026-05-02T10:34:04.838Z</time></trkpt><trkpt lat="39.0642131" lon="16.2928186"><ele>606.9999999999999</ele><time>2026-05-02T10:34:09.838Z</time></trkpt><trkpt lat="39.0642158" lon="16.2927251"><ele>607.0</ele><time>2026-05-02T10:34:14.838Z</time></trkpt><trkpt lat="39.064219" lon="16.2926319"><ele>607.0</ele><time>2026-05-02T10:34:19.838Z</time></trkpt><trkpt lat="39.0642249" lon="16.2925505"><ele>607.0</ele><time>2026-05-02T10:34:23.838Z</time></trkpt><trkpt lat="39.0642332" lon="16.2924659"><ele>607.0</ele><time>2026-05-02T10:34:28.838Z</time></trkpt><trkpt lat="39.0642404" lon="16.2923781"><ele>606.9999999999999</ele><time>2026-05-02T10:34:33.838Z</time></trkpt><trkpt lat="39.0642373" lon="16.2922911"><ele>607.0</ele><time>2026-05-02T10:34:38.838Z</time></trkpt><trkpt lat="39.0642226" lon="16.2921926"><ele>609.8571428571428</ele><time>2026-05-02T10:34:43.838Z</time></trkpt><trkpt lat="39.0642164" lon="16.2920937"><ele>612.7142857142857</ele><time>2026-05-02T10:34:49.822Z</time></trkpt><trkpt lat="39.0642255" lon="16.2920078"><ele>615.5714285714286</ele><time>2026-05-02T10:34:54.838Z</time></trkpt><trkpt lat="39.0642762" lon="16.2919408"><ele>618.4285714285713</ele><time>2026-05-02T10:34:59.846Z</time></trkpt><trkpt lat="39.0643443" lon="16.2919077"><ele>621.2857142857142</ele><time>2026-05-02T10:35:04.838Z</time></trkpt><trkpt lat="39.0644" lon="16.2918616"><ele>624.1428571428571</ele><time>2026-05-02T10:35:09.838Z</time></trkpt><trkpt lat="39.064434" lon="16.2917866"><ele>627.0</ele><time>2026-05-02T10:35:14.838Z</time></trkpt><trkpt lat="39.0644632" lon="16.291709"><ele>627.0</ele><time>2026-05-02T10:35:19.838Z</time></trkpt><trkpt lat="39.0644937" lon="16.2916261"><ele>627.0</ele><time>2026-05-02T10:35:24.838Z</time></trkpt><trkpt lat="39.0645347" lon="16.2915621"><ele>627.0</ele><time>2026-05-02T10:35:29.839Z</time></trkpt><trkpt lat="39.0645895" lon="16.2914935"><ele>627.0</ele><time>2026-05-02T10:35:35.838Z</time></trkpt><trkpt lat="39.0646581" lon="16.2914432"><ele>627.0</ele><time>2026-05-02T10:35:44.838Z</time></trkpt><trkpt lat="39.0647158" lon="16.2913966"><ele>627.0</ele><time>2026-05-02T10:35:49.838Z</time></trkpt><trkpt lat="39.0647731" lon="16.2913466"><ele>627.0</ele><time>2026-05-02T10:35:55.839Z</time></trkpt><trkpt lat="39.0648249" lon="16.2912914"><ele>629.4285714285714</ele><time>2026-05-02T10:35:59.838Z</time></trkpt><trkpt lat="39.0648861" lon="16.2912383"><ele>631.8571428571429</ele><time>2026-05-02T10:36:04.837Z</time></trkpt><trkpt lat="39.0649302" lon="16.2911616"><ele>634.2857142857142</ele><time>2026-05-02T10:36:09.603Z</time></trkpt><trkpt lat="39.0649583" lon="16.2910703"><ele>636.7142857142858</ele><time>2026-05-02T10:36:14.299Z</time></trkpt><trkpt lat="39.064974" lon="16.2909915"><ele>639.1428571428571</ele><time>2026-05-02T10:36:17.838Z</time></trkpt><trkpt lat="39.0649796" lon="16.2908948"><ele>641.5714285714286</ele><time>2026-05-02T10:36:22.837Z</time></trkpt><trkpt lat="39.06496" lon="16.2908043"><ele>644.0</ele><time>2026-05-02T10:36:27.837Z</time></trkpt><trkpt lat="39.0649356" lon="16.2907231"><ele>644.0</ele><time>2026-05-02T10:36:32.837Z</time></trkpt><trkpt lat="39.0649228" lon="16.2906362"><ele>644.0</ele><time>2026-05-02T10:36:36.787Z</time></trkpt><trkpt lat="39.0649065" lon="16.2905423"><ele>644.0</ele><time>2026-05-02T10:36:40.838Z</time></trkpt><trkpt lat="39.06488" lon="16.2904598"><ele>644.0</ele><time>2026-05-02T10:36:43.837Z</time></trkpt><trkpt lat="39.0648648" lon="16.290364"><ele>644.0</ele><time>2026-05-02T10:36:47.837Z</time></trkpt><trkpt lat="39.0648647" lon="16.2902736"><ele>644.0</ele><time>2026-05-02T10:36:50.808Z</time></trkpt><trkpt lat="39.0648547" lon="16.2901696"><ele>644.0</ele><time>2026-05-02T10:36:53.837Z</time></trkpt><trkpt lat="39.0648544" lon="16.2900488"><ele>644.8333333333333</ele><time>2026-05-02T10:36:56.837Z</time></trkpt><trkpt lat="39.0648588" lon="16.2899661"><ele>645.6666666666666</ele><time>2026-05-02T10:36:58.787Z</time></trkpt><trkpt lat="39.0648614" lon="16.2898705"><ele>646.5</ele><time>2026-05-02T10:37:00.837Z</time></trkpt><trkpt lat="39.0648695" lon="16.2897786"><ele>647.3333333333334</ele><time>2026-05-02T10:37:02.837Z</time></trkpt><trkpt lat="39.064878" lon="16.2896924"><ele>648.1666666666667</ele><time>2026-05-02T10:37:04.837Z</time></trkpt><trkpt lat="39.0648928" lon="16.2895799"><ele>649.0</ele><time>2026-05-02T10:37:07.769Z</time></trkpt><trkpt lat="39.0649195" lon="16.2894763"><ele>640.1666666666667</ele><time>2026-05-02T10:37:10.837Z</time></trkpt><trkpt lat="39.0649552" lon="16.2893728"><ele>631.3333333333334</ele><time>2026-05-02T10:37:13.846Z</time></trkpt><trkpt lat="39.0649864" lon="16.2893014"><ele>622.5</ele><time>2026-05-02T10:37:15.837Z</time></trkpt><trkpt lat="39.0650264" lon="16.2892005"><ele>613.6666666666666</ele><time>2026-05-02T10:37:18.813Z</time></trkpt><trkpt lat="39.0650578" lon="16.2891082"><ele>604.8333333333333</ele><time>2026-05-02T10:37:21.838Z</time></trkpt><trkpt lat="39.0650905" lon="16.2890288"><ele>596.0</ele><time>2026-05-02T10:37:24.837Z</time></trkpt><trkpt lat="39.065123" lon="16.2889525"><ele>596.8571428571429</ele><time>2026-05-02T10:37:27.837Z</time></trkpt><trkpt lat="39.0651292" lon="16.2888519"><ele>597.7142857142857</ele><time>2026-05-02T10:37:30.837Z</time></trkpt><trkpt lat="39.0651025" lon="16.2887516"><ele>598.5714285714286</ele><time>2026-05-02T10:37:33.837Z</time></trkpt><trkpt lat="39.0650677" lon="16.2886702"><ele>599.4285714285714</ele><time>2026-05-02T10:37:36.837Z</time></trkpt><trkpt lat="39.0650243" lon="16.2885953"><ele>600.2857142857142</ele><time>2026-05-02T10:37:39.826Z</time></trkpt><trkpt lat="39.0649887" lon="16.2885213"><ele>601.1428571428571</ele><time>2026-05-02T10:37:42.837Z</time></trkpt><trkpt lat="39.064958" lon="16.288448"><ele>602.0</ele><time>2026-05-02T10:37:45.846Z</time></trkpt><trkpt lat="39.064917" lon="16.2883773"><ele>602.0</ele><time>2026-05-02T10:37:49.837Z</time></trkpt><trkpt lat="39.0648386" lon="16.2883287"><ele>602.0</ele><time>2026-05-02T10:37:53.724Z</time></trkpt><trkpt lat="39.0647632" lon="16.2883053"><ele>602.0</ele><time>2026-05-02T10:37:56.838Z</time></trkpt><trkpt lat="39.0646882" lon="16.2882635"><ele>602.0</ele><time>2026-05-02T10:37:59.837Z</time></trkpt><trkpt lat="39.0646164" lon="16.2882228"><ele>602.0</ele><time>2026-05-02T10:38:02.78Z</time></trkpt><trkpt lat="39.0645363" lon="16.2881722"><ele>602.0</ele><time>2026-05-02T10:38:05.837Z</time></trkpt><trkpt lat="39.0644666" lon="16.2880969"><ele>602.1666666666666</ele><time>2026-05-02T10:38:08.847Z</time></trkpt><trkpt lat="39.0644192" lon="16.2880346"><ele>602.3333333333333</ele><time>2026-05-02T10:38:10.837Z</time></trkpt><trkpt lat="39.0643417" lon="16.2879761"><ele>602.5</ele><time>2026-05-02T10:38:13.837Z</time></trkpt><trkpt lat="39.064269" lon="16.2879209"><ele>602.6666666666666</ele><time>2026-05-02T10:38:16.838Z</time></trkpt><trkpt lat="39.0641951" lon="16.287888"><ele>602.8333333333334</ele><time>2026-05-02T10:38:19.744Z</time></trkpt><trkpt lat="39.0641117" lon="16.2878833"><ele>603.0</ele><time>2026-05-02T10:38:22.837Z</time></trkpt><trkpt lat="39.0640334" lon="16.2878805"><ele>603.0</ele><time>2026-05-02T10:38:25.837Z</time></trkpt><trkpt lat="39.0639545" lon="16.2878646"><ele>603.0</ele><time>2026-05-02T10:38:28.837Z</time></trkpt><trkpt lat="39.0638757" lon="16.2878306"><ele>603.0</ele><time>2026-05-02T10:38:31.837Z</time></trkpt><trkpt lat="39.0638052" lon="16.2877916"><ele>603.0</ele><time>2026-05-02T10:38:34.837Z</time></trkpt><trkpt lat="39.0637332" lon="16.2877598"><ele>603.0</ele><time>2026-05-02T10:38:37.838Z</time></trkpt><trkpt lat="39.0636546" lon="16.2877325"><ele>603.0</ele><time>2026-05-02T10:38:40.819Z</time></trkpt><trkpt lat="39.0635695" lon="16.2877013"><ele>603.0</ele><time>2026-05-02T10:38:43.838Z</time></trkpt><trkpt lat="39.0634925" lon="16.2876474"><ele>603.0</ele><time>2026-05-02T10:38:46.838Z</time></trkpt><trkpt lat="39.0634403" lon="16.2875945"><ele>603.0</ele><time>2026-05-02T10:38:49.762Z</time></trkpt><trkpt lat="39.0633667" lon="16.2875595"><ele>603.0</ele><time>2026-05-02T10:38:53.837Z</time></trkpt><trkpt lat="39.0633012" lon="16.2875166"><ele>603.0</ele><time>2026-05-02T10:38:56.837Z</time></trkpt><trkpt lat="39.0632606" lon="16.2874349"><ele>603.0</ele><time>2026-05-02T10:38:59.801Z</time></trkpt><trkpt lat="39.0632819" lon="16.2873473"><ele>603.0</ele><time>2026-05-02T10:39:01.838Z</time></trkpt><trkpt lat="39.0633249" lon="16.287284"><ele>603.0</ele><time>2026-05-02T10:39:03.837Z</time></trkpt><trkpt lat="39.0633951" lon="16.2872342"><ele>603.0</ele><time>2026-05-02T10:39:06.781Z</time></trkpt><trkpt lat="39.0634682" lon="16.2872059"><ele>603.0</ele><time>2026-05-02T10:39:10.545Z</time></trkpt><trkpt lat="39.0635399" lon="16.2871647"><ele>603.0</ele><time>2026-05-02T10:39:15.269Z</time></trkpt><trkpt lat="39.0636039" lon="16.2871131"><ele>603.0</ele><time>2026-05-02T10:39:20.002Z</time></trkpt><trkpt lat="39.0636619" lon="16.2870784"><ele>603.0</ele><time>2026-05-02T10:39:24.381Z</time></trkpt><trkpt lat="39.0637267" lon="16.2870486"><ele>605.5714285714286</ele><time>2026-05-02T10:39:29.221Z</time></trkpt><trkpt lat="39.0637814" lon="16.2870044"><ele>608.1428571428571</ele><time>2026-05-02T10:39:33.926Z</time></trkpt><trkpt lat="39.0638337" lon="16.2869445"><ele>610.7142857142857</ele><time>2026-05-02T10:39:38.848Z</time></trkpt><trkpt lat="39.063871" lon="16.2868712"><ele>613.2857142857142</ele><time>2026-05-02T10:39:43.763Z</time></trkpt><trkpt lat="39.0639143" lon="16.2867948"><ele>615.8571428571429</ele><time>2026-05-02T10:39:48.837Z</time></trkpt><trkpt lat="39.063962" lon="16.2867202"><ele>618.4285714285713</ele><time>2026-05-02T10:39:53.837Z</time></trkpt><trkpt lat="39.0640133" lon="16.2866487"><ele>621.0</ele><time>2026-05-02T10:39:58.837Z</time></trkpt><trkpt lat="39.0640641" lon="16.2865869"><ele>621.5714285714286</ele><time>2026-05-02T10:40:03.837Z</time></trkpt><trkpt lat="39.064131" lon="16.2865498"><ele>622.1428571428571</ele><time>2026-05-02T10:40:08.837Z</time></trkpt><trkpt lat="39.0641996" lon="16.2865178"><ele>622.7142857142858</ele><time>2026-05-02T10:40:13.837Z</time></trkpt><trkpt lat="39.0642721" lon="16.2864938"><ele>623.2857142857142</ele><time>2026-05-02T10:40:18.837Z</time></trkpt><trkpt lat="39.0643485" lon="16.2864821"><ele>623.8571428571429</ele><time>2026-05-02T10:40:23.837Z</time></trkpt><trkpt lat="39.0644186" lon="16.286463"><ele>624.4285714285714</ele><time>2026-05-02T10:40:28.837Z</time></trkpt><trkpt lat="39.0644877" lon="16.2864355"><ele>625.0</ele><time>2026-05-02T10:40:33.837Z</time></trkpt><trkpt lat="39.0645544" lon="16.2864018"><ele>625.0000000000001</ele><time>2026-05-02T10:40:38.837Z</time></trkpt><trkpt lat="39.0646225" lon="16.2863599"><ele>625.0</ele><time>2026-05-02T10:40:43.764Z</time></trkpt><trkpt lat="39.0646843" lon="16.2863106"><ele>625.0</ele><time>2026-05-02T10:40:48.745Z</time></trkpt><trkpt lat="39.064751" lon="16.2862771"><ele>625.0</ele><time>2026-05-02T10:40:53.686Z</time></trkpt><trkpt lat="39.0648212" lon="16.2862519"><ele>625.0</ele><time>2026-05-02T10:40:58.667Z</time></trkpt><trkpt lat="39.0648864" lon="16.2862066"><ele>625.0000000000001</ele><time>2026-05-02T10:41:03.764Z</time></trkpt><trkpt lat="39.064915" lon="16.2861223"><ele>625.0</ele><time>2026-05-02T10:41:08.837Z</time></trkpt><trkpt lat="39.0649212" lon="16.286029"><ele>625.0000000000001</ele><time>2026-05-02T10:41:13.837Z</time></trkpt><trkpt lat="39.0649053" lon="16.285932"><ele>625.0</ele><time>2026-05-02T10:41:18.82Z</time></trkpt><trkpt lat="39.064875" lon="16.2858404"><ele>625.0</ele><time>2026-05-02T10:41:23.82Z</time></trkpt><trkpt lat="39.0648425" lon="16.2857655"><ele>625.0</ele><time>2026-05-02T10:41:27.837Z</time></trkpt><trkpt lat="39.0647981" lon="16.2856959"><ele>625.0</ele><time>2026-05-02T10:41:32.837Z</time></trkpt><trkpt lat="39.0647549" lon="16.2856257"><ele>625.0000000000001</ele><time>2026-05-02T10:41:37.838Z</time></trkpt><trkpt lat="39.0647177" lon="16.2855359"><ele>625.0</ele><time>2026-05-02T10:41:42.837Z</time></trkpt><trkpt lat="39.0646981" lon="16.2854559"><ele>624.2857142857143</ele><time>2026-05-02T10:41:46.837Z</time></trkpt><trkpt lat="39.0646768" lon="16.2853644"><ele>623.5714285714286</ele><time>2026-05-02T10:41:51.837Z</time></trkpt><trkpt lat="39.064664" lon="16.2852716"><ele>622.8571428571429</ele><time>2026-05-02T10:41:56.783Z</time></trkpt><trkpt lat="39.0646333" lon="16.2851845"><ele>622.1428571428571</ele><time>2026-05-02T10:42:02.765Z</time></trkpt><trkpt lat="39.0646077" lon="16.2851075"><ele>621.4285714285714</ele><time>2026-05-02T10:42:07.837Z</time></trkpt><trkpt lat="39.0645742" lon="16.285023"><ele>620.7142857142858</ele><time>2026-05-02T10:42:13.837Z</time></trkpt><trkpt lat="39.0645497" lon="16.284941"><ele>620.0</ele><time>2026-05-02T10:42:18.837Z</time></trkpt><trkpt lat="39.0645083" lon="16.2848643"><ele>620.0</ele><time>2026-05-02T10:42:24.837Z</time></trkpt><trkpt lat="39.0644537" lon="16.2848173"><ele>620.0</ele><time>2026-05-02T10:42:29.837Z</time></trkpt><trkpt lat="39.064389" lon="16.2847701"><ele>620.0</ele><time>2026-05-02T10:42:36.837Z</time></trkpt><trkpt lat="39.0643247" lon="16.2847386"><ele>620.0</ele><time>2026-05-02T10:42:41.837Z</time></trkpt><trkpt lat="39.0642671" lon="16.2846926"><ele>620.0</ele><time>2026-05-02T10:42:46.838Z</time></trkpt><trkpt lat="39.064212" lon="16.2846448"><ele>620.0</ele><time>2026-05-02T10:42:51.837Z</time></trkpt><trkpt lat="39.0641537" lon="16.2845915"><ele>620.0</ele><time>2026-05-02T10:42:56.837Z</time></trkpt><trkpt lat="39.0640852" lon="16.2845399"><ele>624.2857142857143</ele><time>2026-05-02T10:43:01.838Z</time></trkpt><trkpt lat="39.0640236" lon="16.2845028"><ele>628.5714285714286</ele><time>2026-05-02T10:43:06.837Z</time></trkpt><trkpt lat="39.0639666" lon="16.2844672"><ele>632.8571428571429</ele><time>2026-05-02T10:43:10.837Z</time></trkpt><trkpt lat="39.0639029" lon="16.2844402"><ele>637.1428571428571</ele><time>2026-05-02T10:43:15.837Z</time></trkpt><trkpt lat="39.0638389" lon="16.2844619"><ele>641.4285714285714</ele><time>2026-05-02T10:43:21.837Z</time></trkpt><trkpt lat="39.0637702" lon="16.2844722"><ele>645.7142857142857</ele><time>2026-05-02T10:43:26.837Z</time></trkpt><trkpt lat="39.0637017" lon="16.284472"><ele>650.0</ele><time>2026-05-02T10:43:31.879Z</time></trkpt><trkpt lat="39.0637322" lon="16.2842948"><ele>650.0</ele><time>2026-05-02T10:43:32.837Z</time></trkpt><trkpt lat="39.0637396" lon="16.2842096"><ele>650.0</ele><time>2026-05-02T10:43:34.837Z</time></trkpt><trkpt lat="39.0637591" lon="16.2841126"><ele>650.0</ele><time>2026-05-02T10:43:39.837Z</time></trkpt><trkpt lat="39.0638112" lon="16.2840375"><ele>650.0</ele><time>2026-05-02T10:43:44.695Z</time></trkpt><trkpt lat="39.063857" lon="16.2839691"><ele>650.0</ele><time>2026-05-02T10:43:49.852Z</time></trkpt><trkpt lat="39.0639126" lon="16.2839076"><ele>650.0</ele><time>2026-05-02T10:43:55.711Z</time></trkpt><trkpt lat="39.0639521" lon="16.2838394"><ele>650.0</ele><time>2026-05-02T10:44:00.615Z</time></trkpt><trkpt lat="39.0639833" lon="16.2837606"><ele>651.2857142857142</ele><time>2026-05-02T10:44:05.552Z</time></trkpt><trkpt lat="39.0640299" lon="16.2836851"><ele>652.5714285714287</ele><time>2026-05-02T10:44:10.434Z</time></trkpt><trkpt lat="39.0640595" lon="16.2836126"><ele>653.8571428571429</ele><time>2026-05-02T10:44:14.312Z</time></trkpt><trkpt lat="39.0640928" lon="16.2835242"><ele>655.1428571428571</ele><time>2026-05-02T10:44:19.168Z</time></trkpt><trkpt lat="39.0641339" lon="16.2834386"><ele>656.4285714285713</ele><time>2026-05-02T10:44:24.015Z</time></trkpt><trkpt lat="39.0641671" lon="16.2833506"><ele>657.7142857142858</ele><time>2026-05-02T10:44:28.838Z</time></trkpt><trkpt lat="39.064206" lon="16.2832767"><ele>659.0</ele><time>2026-05-02T10:44:32.809Z</time></trkpt><trkpt lat="39.0642521" lon="16.2832036"><ele>654.4285714285714</ele><time>2026-05-02T10:44:36.73Z</time></trkpt><trkpt lat="39.0642782" lon="16.2831244"><ele>649.8571428571428</ele><time>2026-05-02T10:44:40.695Z</time></trkpt><trkpt lat="39.0643023" lon="16.2830306"><ele>645.2857142857142</ele><time>2026-05-02T10:44:45.837Z</time></trkpt><trkpt lat="39.0643044" lon="16.2829481"><ele>640.7142857142858</ele><time>2026-05-02T10:44:50.77Z</time></trkpt><trkpt lat="39.0642976" lon="16.2828533"><ele>636.1428571428571</ele><time>2026-05-02T10:44:55.837Z</time></trkpt><trkpt lat="39.0642901" lon="16.2827634"><ele>631.5714285714286</ele><time>2026-05-02T10:45:00.873Z</time></trkpt><trkpt lat="39.064274" lon="16.2826749"><ele>627.0</ele><time>2026-05-02T10:45:05.837Z</time></trkpt><trkpt lat="39.0642628" lon="16.2825875"><ele>627.0</ele><time>2026-05-02T10:45:09.837Z</time></trkpt><trkpt lat="39.064257" lon="16.2824964"><ele>627.0</ele><time>2026-05-02T10:45:13.79Z</time></trkpt><trkpt lat="39.0642463" lon="16.2824116"><ele>627.0</ele><time>2026-05-02T10:45:17.837Z</time></trkpt><trkpt lat="39.0642312" lon="16.2823128"><ele>627.0</ele><time>2026-05-02T10:45:22.838Z</time></trkpt><trkpt lat="39.0642228" lon="16.2822217"><ele>627.0</ele><time>2026-05-02T10:45:27.837Z</time></trkpt><trkpt lat="39.0641785" lon="16.2821602"><ele>627.0</ele><time>2026-05-02T10:45:32.837Z</time></trkpt><trkpt lat="39.0641174" lon="16.2821115"><ele>627.0</ele><time>2026-05-02T10:45:37.837Z</time></trkpt><trkpt lat="39.0640628" lon="16.2820632"><ele>631.2857142857143</ele><time>2026-05-02T10:45:42.845Z</time></trkpt><trkpt lat="39.0640164" lon="16.2819891"><ele>635.5714285714286</ele><time>2026-05-02T10:45:48.837Z</time></trkpt><trkpt lat="39.063985" lon="16.2819002"><ele>639.8571428571429</ele><time>2026-05-02T10:45:54.845Z</time></trkpt><trkpt lat="39.0639637" lon="16.2818228"><ele>644.1428571428571</ele><time>2026-05-02T10:46:00.838Z</time></trkpt><trkpt lat="39.0639173" lon="16.2817655"><ele>648.4285714285714</ele><time>2026-05-02T10:46:05.837Z</time></trkpt><trkpt lat="39.0638772" lon="16.281688"><ele>652.7142857142857</ele><time>2026-05-02T10:46:10.837Z</time></trkpt><trkpt lat="39.0638608" lon="16.2815951"><ele>657.0</ele><time>2026-05-02T10:46:15.837Z</time></trkpt><trkpt lat="39.063844" lon="16.2815074"><ele>657.5714285714286</ele><time>2026-05-02T10:46:21.773Z</time></trkpt><trkpt lat="39.0638138" lon="16.2814149"><ele>658.1428571428572</ele><time>2026-05-02T10:46:29.832Z</time></trkpt><trkpt lat="39.0637693" lon="16.2813357"><ele>658.7142857142858</ele><time>2026-05-02T10:46:36.837Z</time></trkpt><trkpt lat="39.0637149" lon="16.2812925"><ele>659.2857142857142</ele><time>2026-05-02T10:46:41.837Z</time></trkpt><trkpt lat="39.0636708" lon="16.2812154"><ele>659.8571428571429</ele><time>2026-05-02T10:46:46.839Z</time></trkpt><trkpt lat="39.0636493" lon="16.2811367"><ele>660.4285714285714</ele><time>2026-05-02T10:46:51.837Z</time></trkpt><trkpt lat="39.0636398" lon="16.2810529"><ele>661.0</ele><time>2026-05-02T10:46:57.837Z</time></trkpt><trkpt lat="39.0636455" lon="16.2809647"><ele>661.0</ele><time>2026-05-02T10:47:04.837Z</time></trkpt><trkpt lat="39.0636552" lon="16.2808753"><ele>661.0</ele><time>2026-05-02T10:47:10.837Z</time></trkpt><trkpt lat="39.063671" lon="16.280791"><ele>661.0</ele><time>2026-05-02T10:47:15.814Z</time></trkpt><trkpt lat="39.0636698" lon="16.2807063"><ele>661.0</ele><time>2026-05-02T10:47:20.837Z</time></trkpt><trkpt lat="39.0636314" lon="16.2806288"><ele>661.0</ele><time>2026-05-02T10:47:25.837Z</time></trkpt><trkpt lat="39.0636045" lon="16.2805484"><ele>661.0</ele><time>2026-05-02T10:47:32.837Z</time></trkpt><trkpt lat="39.0635645" lon="16.2804783"><ele>661.0</ele><time>2026-05-02T10:47:37.837Z</time></trkpt><trkpt lat="39.0635156" lon="16.2804243"><ele>661.0</ele><time>2026-05-02T10:47:41.878Z</time></trkpt><trkpt lat="39.0634472" lon="16.2803997"><ele>661.0</ele><time>2026-05-02T10:47:47.837Z</time></trkpt><trkpt lat="39.0633971" lon="16.2803431"><ele>661.0</ele><time>2026-05-02T10:47:53.836Z</time></trkpt><trkpt lat="39.0634343" lon="16.2804181"><ele>661.0</ele><time>2026-05-02T10:48:07.837Z</time></trkpt><trkpt lat="39.0634934" lon="16.2804521"><ele>661.0</ele><time>2026-05-02T10:48:12.816Z</time></trkpt><trkpt lat="39.0635507" lon="16.2805075"><ele>661.0</ele><time>2026-05-02T10:48:17.836Z</time></trkpt><trkpt lat="39.0635953" lon="16.2805717"><ele>661.0</ele><time>2026-05-02T10:48:21.836Z</time></trkpt><trkpt lat="39.0636325" lon="16.2806393"><ele>661.0</ele><time>2026-05-02T10:48:24.836Z</time></trkpt><trkpt lat="39.0636576" lon="16.2807196"><ele>661.0</ele><time>2026-05-02T10:48:27.742Z</time></trkpt><trkpt lat="39.0636607" lon="16.2808081"><ele>661.0</ele><time>2026-05-02T10:48:30.742Z</time></trkpt><trkpt lat="39.0636392" lon="16.2808905"><ele>661.0</ele><time>2026-05-02T10:48:33.761Z</time></trkpt><trkpt lat="39.0636302" lon="16.2809802"><ele>661.0</ele><time>2026-05-02T10:48:36.762Z</time></trkpt><trkpt lat="39.0636288" lon="16.2810764"><ele>661.0</ele><time>2026-05-02T10:48:39.836Z</time></trkpt><trkpt lat="39.0636336" lon="16.2811665"><ele>661.0</ele><time>2026-05-02T10:48:42.837Z</time></trkpt><trkpt lat="39.0636682" lon="16.2812511"><ele>661.0</ele><time>2026-05-02T10:48:46.782Z</time></trkpt><trkpt lat="39.0637083" lon="16.2813383"><ele>661.0</ele><time>2026-05-02T10:48:49.754Z</time></trkpt><trkpt lat="39.0637775" lon="16.2814182"><ele>661.0</ele><time>2026-05-02T10:48:52.836Z</time></trkpt><trkpt lat="39.0638245" lon="16.2815142"><ele>661.0</ele><time>2026-05-02T10:48:55.836Z</time></trkpt><trkpt lat="39.0638578" lon="16.2816105"><ele>661.0</ele><time>2026-05-02T10:48:58.836Z</time></trkpt><trkpt lat="39.0638913" lon="16.2816982"><ele>661.0</ele><time>2026-05-02T10:49:01.836Z</time></trkpt><trkpt lat="39.0639271" lon="16.2817904"><ele>660.3333333333334</ele><time>2026-05-02T10:49:04.821Z</time></trkpt><trkpt lat="39.06398" lon="16.2818749"><ele>659.6666666666667</ele><time>2026-05-02T10:49:07.836Z</time></trkpt><trkpt lat="39.0640262" lon="16.2819528"><ele>659.0</ele><time>2026-05-02T10:49:10.836Z</time></trkpt><trkpt lat="39.0640677" lon="16.2820333"><ele>658.3333333333334</ele><time>2026-05-02T10:49:13.876Z</time></trkpt><trkpt lat="39.0641184" lon="16.2821384"><ele>657.6666666666666</ele><time>2026-05-02T10:49:16.836Z</time></trkpt><trkpt lat="39.0641717" lon="16.2822314"><ele>657.0</ele><time>2026-05-02T10:49:19.774Z</time></trkpt><trkpt lat="39.0642167" lon="16.2822954"><ele>652.0</ele><time>2026-05-02T10:49:21.836Z</time></trkpt><trkpt lat="39.0642698" lon="16.2823859"><ele>647.0</ele><time>2026-05-02T10:49:24.838Z</time></trkpt><trkpt lat="39.0642955" lon="16.2824739"><ele>642.0</ele><time>2026-05-02T10:49:27.836Z</time></trkpt><trkpt lat="39.064306" lon="16.2825667"><ele>637.0</ele><time>2026-05-02T10:49:30.843Z</time></trkpt><trkpt lat="39.0643051" lon="16.2826599"><ele>632.0</ele><time>2026-05-02T10:49:33.836Z</time></trkpt><trkpt lat="39.0642966" lon="16.2827509"><ele>627.0</ele><time>2026-05-02T10:49:36.794Z</time></trkpt><trkpt lat="39.0643045" lon="16.2828467"><ele>627.0</ele><time>2026-05-02T10:49:39.836Z</time></trkpt><trkpt lat="39.0643233" lon="16.2829375"><ele>627.0</ele><time>2026-05-02T10:49:42.841Z</time></trkpt><trkpt lat="39.0643417" lon="16.2830251"><ele>627.0</ele><time>2026-05-02T10:49:45.813Z</time></trkpt><trkpt lat="39.0643326" lon="16.2831085"><ele>627.0</ele><time>2026-05-02T10:49:48.868Z</time></trkpt><trkpt lat="39.0642953" lon="16.283193"><ele>627.0</ele><time>2026-05-02T10:49:51.836Z</time></trkpt><trkpt lat="39.0642631" lon="16.2832741"><ele>627.0</ele><time>2026-05-02T10:49:54.836Z</time></trkpt><trkpt lat="39.0642377" lon="16.2833605"><ele>627.0</ele><time>2026-05-02T10:49:57.836Z</time></trkpt><trkpt lat="39.0642064" lon="16.2834466"><ele>627.0</ele><time>2026-05-02T10:50:00.836Z</time></trkpt><trkpt lat="39.0641664" lon="16.2835376"><ele>627.0</ele><time>2026-05-02T10:50:04.839Z</time></trkpt><trkpt lat="39.0641278" lon="16.2836412"><ele>627.0</ele><time>2026-05-02T10:50:08.842Z</time></trkpt><trkpt lat="39.0640901" lon="16.2837346"><ele>627.0</ele><time>2026-05-02T10:50:11.775Z</time></trkpt><trkpt lat="39.064051" lon="16.2838241"><ele>627.0</ele><time>2026-05-02T10:50:14.836Z</time></trkpt><trkpt lat="39.0640125" lon="16.2839075"><ele>627.0</ele><time>2026-05-02T10:50:17.837Z</time></trkpt><trkpt lat="39.0639594" lon="16.2839769"><ele>630.8333333333334</ele><time>2026-05-02T10:50:20.841Z</time></trkpt><trkpt lat="39.0638993" lon="16.2840551"><ele>634.6666666666666</ele><time>2026-05-02T10:50:23.757Z</time></trkpt><trkpt lat="39.0638484" lon="16.2841341"><ele>638.5</ele><time>2026-05-02T10:50:26.861Z</time></trkpt><trkpt lat="39.0638021" lon="16.2841964"><ele>642.3333333333333</ele><time>2026-05-02T10:50:29.837Z</time></trkpt><trkpt lat="39.0637609" lon="16.2842818"><ele>646.1666666666666</ele><time>2026-05-02T10:50:33.795Z</time></trkpt><trkpt lat="39.0638036" lon="16.2843704"><ele>650.0</ele><time>2026-05-02T10:50:37.836Z</time></trkpt><trkpt lat="39.063859" lon="16.2844131"><ele>650.0</ele><time>2026-05-02T10:50:40.837Z</time></trkpt><trkpt lat="39.0639263" lon="16.2844572"><ele>650.0</ele><time>2026-05-02T10:50:43.814Z</time></trkpt><trkpt lat="39.0639894" lon="16.2844979"><ele>650.0</ele><time>2026-05-02T10:50:46.836Z</time></trkpt><trkpt lat="39.064053" lon="16.2845381"><ele>650.0</ele><time>2026-05-02T10:50:49.836Z</time></trkpt><trkpt lat="39.0641162" lon="16.2845868"><ele>650.0</ele><time>2026-05-02T10:50:52.777Z</time></trkpt><trkpt lat="39.0641804" lon="16.2846421"><ele>650.0</ele><time>2026-05-02T10:50:55.836Z</time></trkpt><trkpt lat="39.0642411" lon="16.284693"><ele>650.0</ele><time>2026-05-02T10:50:58.836Z</time></trkpt><trkpt lat="39.0643036" lon="16.2847384"><ele>645.0</ele><time>2026-05-02T10:51:01.836Z</time></trkpt><trkpt lat="39.0643638" lon="16.2847956"><ele>640.0</ele><time>2026-05-02T10:51:04.837Z</time></trkpt><trkpt lat="39.0644278" lon="16.2848456"><ele>635.0</ele><time>2026-05-02T10:51:07.836Z</time></trkpt><trkpt lat="39.0644935" lon="16.2849098"><ele>630.0</ele><time>2026-05-02T10:51:10.836Z</time></trkpt><trkpt lat="39.0645543" lon="16.2849817"><ele>625.0</ele><time>2026-05-02T10:51:14.836Z</time></trkpt><trkpt lat="39.0645878" lon="16.2850592"><ele>620.0</ele><time>2026-05-02T10:51:17.756Z</time></trkpt><trkpt lat="39.0646229" lon="16.2851452"><ele>620.0</ele><time>2026-05-02T10:51:20.84Z</time></trkpt><trkpt lat="39.0646529" lon="16.285222"><ele>620.0</ele><time>2026-05-02T10:51:23.836Z</time></trkpt><trkpt lat="39.0646791" lon="16.2853055"><ele>620.0</ele><time>2026-05-02T10:51:26.836Z</time></trkpt><trkpt lat="39.0647049" lon="16.2853945"><ele>620.0</ele><time>2026-05-02T10:51:29.836Z</time></trkpt><trkpt lat="39.0647271" lon="16.2854805"><ele>620.0</ele><time>2026-05-02T10:51:32.836Z</time></trkpt><trkpt lat="39.0647442" lon="16.2855691"><ele>620.0</ele><time>2026-05-02T10:51:35.836Z</time></trkpt><trkpt lat="39.0647675" lon="16.285675"><ele>620.0</ele><time>2026-05-02T10:51:38.861Z</time></trkpt><trkpt lat="39.0648035" lon="16.2857655"><ele>620.7142857142858</ele><time>2026-05-02T10:51:41.833Z</time></trkpt><trkpt lat="39.0648436" lon="16.2858403"><ele>621.4285714285714</ele><time>2026-05-02T10:51:44.76Z</time></trkpt><trkpt lat="39.0648906" lon="16.2858982"><ele>622.1428571428571</ele><time>2026-05-02T10:51:47.836Z</time></trkpt><trkpt lat="39.064929" lon="16.2859952"><ele>622.8571428571429</ele><time>2026-05-02T10:51:51.836Z</time></trkpt><trkpt lat="39.0649511" lon="16.2860762"><ele>623.5714285714286</ele><time>2026-05-02T10:51:54.836Z</time></trkpt><trkpt lat="39.0649457" lon="16.2861688"><ele>624.2857142857143</ele><time>2026-05-02T10:51:57.833Z</time></trkpt><trkpt lat="39.0648931" lon="16.2862421"><ele>625.0</ele><time>2026-05-02T10:52:00.836Z</time></trkpt><trkpt lat="39.0648214" lon="16.2862776"><ele>625.0000000000001</ele><time>2026-05-02T10:52:03.837Z</time></trkpt><trkpt lat="39.0647445" lon="16.2862941"><ele>625.0</ele><time>2026-05-02T10:52:06.836Z</time></trkpt><trkpt lat="39.0646775" lon="16.2863315"><ele>625.0</ele><time>2026-05-02T10:52:09.795Z</time></trkpt><trkpt lat="39.0646074" lon="16.286374"><ele>625.0</ele><time>2026-05-02T10:52:12.836Z</time></trkpt><trkpt lat="39.0645386" lon="16.2864116"><ele>625.0</ele><time>2026-05-02T10:52:15.836Z</time></trkpt><trkpt lat="39.0644689" lon="16.2864399"><ele>625.0000000000001</ele><time>2026-05-02T10:52:18.836Z</time></trkpt><trkpt lat="39.0644012" lon="16.2864661"><ele>625.0</ele><time>2026-05-02T10:52:21.805Z</time></trkpt><trkpt lat="39.0643285" lon="16.2864892"><ele>624.4285714285714</ele><time>2026-05-02T10:52:24.836Z</time></trkpt><trkpt lat="39.0642556" lon="16.2865126"><ele>623.8571428571429</ele><time>2026-05-02T10:52:27.836Z</time></trkpt><trkpt lat="39.0641819" lon="16.2865425"><ele>623.2857142857142</ele><time>2026-05-02T10:52:30.815Z</time></trkpt><trkpt lat="39.0641142" lon="16.2865805"><ele>622.7142857142858</ele><time>2026-05-02T10:52:33.737Z</time></trkpt><trkpt lat="39.0640454" lon="16.2866166"><ele>622.1428571428571</ele><time>2026-05-02T10:52:36.836Z</time></trkpt><trkpt lat="39.0639872" lon="16.2866745"><ele>621.5714285714286</ele><time>2026-05-02T10:52:39.836Z</time></trkpt><trkpt lat="39.0639366" lon="16.2867386"><ele>621.0</ele><time>2026-05-02T10:52:42.836Z</time></trkpt><trkpt lat="39.0638962" lon="16.2868115"><ele>620.9999999999999</ele><time>2026-05-02T10:52:45.837Z</time></trkpt><trkpt lat="39.063855" lon="16.2868853"><ele>621.0</ele><time>2026-05-02T10:52:48.815Z</time></trkpt><trkpt lat="39.0638154" lon="16.2869557"><ele>621.0</ele><time>2026-05-02T10:52:51.737Z</time></trkpt><trkpt lat="39.063766" lon="16.2870132"><ele>621.0</ele><time>2026-05-02T10:52:54.837Z</time></trkpt><trkpt lat="39.0637134" lon="16.2870627"><ele>621.0</ele><time>2026-05-02T10:52:57.836Z</time></trkpt><trkpt lat="39.0636503" lon="16.2871035"><ele>620.9999999999999</ele><time>2026-05-02T10:53:00.836Z</time></trkpt><trkpt lat="39.0635861" lon="16.2871297"><ele>621.0</ele><time>2026-05-02T10:53:03.836Z</time></trkpt><trkpt lat="39.0635214" lon="16.28716"><ele>620.9999999999999</ele><time>2026-05-02T10:53:06.836Z</time></trkpt><trkpt lat="39.0634494" lon="16.2872189"><ele>621.0</ele><time>2026-05-02T10:53:10.836Z</time></trkpt><trkpt lat="39.063382" lon="16.287255"><ele>621.0</ele><time>2026-05-02T10:53:13.836Z</time></trkpt><trkpt lat="39.063317" lon="16.2872973"><ele>621.0</ele><time>2026-05-02T10:53:16.841Z</time></trkpt><trkpt lat="39.0632674" lon="16.2873633"><ele>621.0</ele><time>2026-05-02T10:53:19.836Z</time></trkpt><trkpt lat="39.0632776" lon="16.2874596"><ele>620.9999999999999</ele><time>2026-05-02T10:53:22.836Z</time></trkpt><trkpt lat="39.0633316" lon="16.2875197"><ele>621.0</ele><time>2026-05-02T10:53:25.793Z</time></trkpt><trkpt lat="39.0633819" lon="16.2875774"><ele>618.4285714285713</ele><time>2026-05-02T10:53:28.836Z</time></trkpt><trkpt lat="39.0634392" lon="16.2876372"><ele>615.8571428571429</ele><time>2026-05-02T10:53:31.794Z</time></trkpt><trkpt lat="39.0635004" lon="16.2876949"><ele>613.2857142857142</ele><time>2026-05-02T10:53:35.836Z</time></trkpt><trkpt lat="39.0635727" lon="16.2877239"><ele>610.7142857142857</ele><time>2026-05-02T10:53:39.836Z</time></trkpt><trkpt lat="39.0636425" lon="16.2877395"><ele>608.1428571428571</ele><time>2026-05-02T10:53:43.841Z</time></trkpt><trkpt lat="39.0637013" lon="16.287769"><ele>605.5714285714286</ele><time>2026-05-02T10:53:47.756Z</time></trkpt><trkpt lat="39.0637714" lon="16.2877977"><ele>603.0</ele><time>2026-05-02T10:53:51.836Z</time></trkpt><trkpt lat="39.0638343" lon="16.2878163"><ele>603.0</ele><time>2026-05-02T10:53:54.836Z</time></trkpt><trkpt lat="39.0639121" lon="16.2878307"><ele>603.0</ele><time>2026-05-02T10:53:57.823Z</time></trkpt><trkpt lat="39.0639917" lon="16.287839"><ele>603.0</ele><time>2026-05-02T10:54:00.836Z</time></trkpt><trkpt lat="39.0640648" lon="16.2878334"><ele>603.0</ele><time>2026-05-02T10:54:03.822Z</time></trkpt><trkpt lat="39.0641383" lon="16.2878347"><ele>603.0</ele><time>2026-05-02T10:54:06.836Z</time></trkpt><trkpt lat="39.0642103" lon="16.2878594"><ele>603.0</ele><time>2026-05-02T10:54:09.837Z</time></trkpt><trkpt lat="39.0642692" lon="16.2879092"><ele>602.8571428571429</ele><time>2026-05-02T10:54:12.836Z</time></trkpt><trkpt lat="39.064313" lon="16.2879705"><ele>602.7142857142857</ele><time>2026-05-02T10:54:15.836Z</time></trkpt><trkpt lat="39.0643591" lon="16.2880323"><ele>602.5714285714286</ele><time>2026-05-02T10:54:19.836Z</time></trkpt><trkpt lat="39.0644167" lon="16.2881027"><ele>602.4285714285714</ele><time>2026-05-02T10:54:25.836Z</time></trkpt><trkpt lat="39.0644806" lon="16.2881362"><ele>602.2857142857142</ele><time>2026-05-02T10:54:29.836Z</time></trkpt><trkpt lat="39.0645533" lon="16.2881681"><ele>602.1428571428571</ele><time>2026-05-02T10:54:34.836Z</time></trkpt><trkpt lat="39.0646205" lon="16.2882067"><ele>602.0</ele><time>2026-05-02T10:54:39.836Z</time></trkpt><trkpt lat="39.0646833" lon="16.2882327"><ele>602.0</ele><time>2026-05-02T10:54:44.836Z</time></trkpt><trkpt lat="39.0647336" lon="16.2882829"><ele>602.0</ele><time>2026-05-02T10:54:49.837Z</time></trkpt><trkpt lat="39.0647934" lon="16.2883187"><ele>602.0</ele><time>2026-05-02T10:54:54.836Z</time></trkpt><trkpt lat="39.0648511" lon="16.2883525"><ele>602.0</ele><time>2026-05-02T10:54:59.836Z</time></trkpt><trkpt lat="39.0649059" lon="16.2883966"><ele>602.0</ele><time>2026-05-02T10:55:04.836Z</time></trkpt><trkpt lat="39.0649689" lon="16.2884553"><ele>602.0</ele><time>2026-05-02T10:55:09.86Z</time></trkpt><trkpt lat="39.0650087" lon="16.2885258"><ele>602.0</ele><time>2026-05-02T10:55:14.838Z</time></trkpt><trkpt lat="39.0650395" lon="16.288611"><ele>601.1428571428571</ele><time>2026-05-02T10:55:19.836Z</time></trkpt><trkpt lat="39.0650758" lon="16.2886822"><ele>600.2857142857142</ele><time>2026-05-02T10:55:22.861Z</time></trkpt><trkpt lat="39.0651143" lon="16.2887538"><ele>599.4285714285714</ele><time>2026-05-02T10:55:25.837Z</time></trkpt><trkpt lat="39.0651383" lon="16.2888338"><ele>598.5714285714286</ele><time>2026-05-02T10:55:28.737Z</time></trkpt><trkpt lat="39.0651293" lon="16.288932"><ele>597.7142857142857</ele><time>2026-05-02T10:55:31.836Z</time></trkpt><trkpt lat="39.0651022" lon="16.2890239"><ele>596.8571428571429</ele><time>2026-05-02T10:55:34.862Z</time></trkpt><trkpt lat="39.0650751" lon="16.289113"><ele>596.0</ele><time>2026-05-02T10:55:37.836Z</time></trkpt><trkpt lat="39.0650512" lon="16.2892011"><ele>596.0</ele><time>2026-05-02T10:55:40.783Z</time></trkpt><trkpt lat="39.0650293" lon="16.2893016"><ele>596.0</ele><time>2026-05-02T10:55:43.837Z</time></trkpt><trkpt lat="39.064999" lon="16.2894118"><ele>596.0</ele><time>2026-05-02T10:55:46.836Z</time></trkpt><trkpt lat="39.0649742" lon="16.2895108"><ele>596.0</ele><time>2026-05-02T10:55:49.699Z</time></trkpt><trkpt lat="39.0649551" lon="16.2896004"><ele>596.0</ele><time>2026-05-02T10:55:53.839Z</time></trkpt><trkpt lat="39.0649325" lon="16.2896824"><ele>596.0</ele><time>2026-05-02T10:55:57.839Z</time></trkpt><trkpt lat="39.0648966" lon="16.2897518"><ele>603.5714285714286</ele><time>2026-05-02T10:56:01.836Z</time></trkpt><trkpt lat="39.0648635" lon="16.2898234"><ele>611.1428571428571</ele><time>2026-05-02T10:56:05.836Z</time></trkpt><trkpt lat="39.064844" lon="16.289917"><ele>618.7142857142857</ele><time>2026-05-02T10:56:10.836Z</time></trkpt><trkpt lat="39.0648142" lon="16.2899916"><ele>626.2857142857142</ele><time>2026-05-02T10:56:15.795Z</time></trkpt><trkpt lat="39.0648005" lon="16.2900728"><ele>633.8571428571429</ele><time>2026-05-02T10:56:20.837Z</time></trkpt><trkpt lat="39.0647868" lon="16.290164"><ele>641.4285714285713</ele><time>2026-05-02T10:56:25.836Z</time></trkpt><trkpt lat="39.0647869" lon="16.2902558"><ele>649.0</ele><time>2026-05-02T10:56:30.837Z</time></trkpt><trkpt lat="39.0648028" lon="16.2903455"><ele>648.9999999999999</ele><time>2026-05-02T10:56:35.836Z</time></trkpt><trkpt lat="39.0648278" lon="16.2904338"><ele>649.0</ele><time>2026-05-02T10:56:40.836Z</time></trkpt><trkpt lat="39.0648517" lon="16.2905203"><ele>649.0</ele><time>2026-05-02T10:56:45.836Z</time></trkpt><trkpt lat="39.0648798" lon="16.2906027"><ele>649.0</ele><time>2026-05-02T10:56:50.836Z</time></trkpt><trkpt lat="39.0649048" lon="16.2906887"><ele>649.0</ele><time>2026-05-02T10:56:55.831Z</time></trkpt><trkpt lat="39.0649365" lon="16.290764"><ele>648.9999999999999</ele><time>2026-05-02T10:57:00.836Z</time></trkpt><trkpt lat="39.0649702" lon="16.2908396"><ele>649.0</ele><time>2026-05-02T10:57:05.836Z</time></trkpt><trkpt lat="39.0649942" lon="16.2909234"><ele>648.2857142857142</ele><time>2026-05-02T10:57:10.836Z</time></trkpt><trkpt lat="39.0650021" lon="16.2910151"><ele>647.5714285714286</ele><time>2026-05-02T10:57:15.837Z</time></trkpt><trkpt lat="39.0649834" lon="16.2910974"><ele>646.8571428571429</ele><time>2026-05-02T10:57:20.836Z</time></trkpt><trkpt lat="39.0649452" lon="16.2911734"><ele>646.1428571428571</ele><time>2026-05-02T10:57:25.831Z</time></trkpt><trkpt lat="39.0649009" lon="16.2912434"><ele>645.4285714285714</ele><time>2026-05-02T10:57:30.836Z</time></trkpt><trkpt lat="39.0648487" lon="16.2913005"><ele>644.7142857142857</ele><time>2026-05-02T10:57:35.836Z</time></trkpt><trkpt lat="39.0647877" lon="16.2913354"><ele>644.0</ele><time>2026-05-02T10:57:40.836Z</time></trkpt><trkpt lat="39.0647188" lon="16.2913721"><ele>644.0</ele><time>2026-05-02T10:57:46.698Z</time></trkpt><trkpt lat="39.0646542" lon="16.2914155"><ele>644.0</ele><time>2026-05-02T10:57:51.837Z</time></trkpt><trkpt lat="39.0646025" lon="16.2914623"><ele>644.0</ele><time>2026-05-02T10:57:55.836Z</time></trkpt><trkpt lat="39.064538" lon="16.2915314"><ele>644.0</ele><time>2026-05-02T10:57:59.837Z</time></trkpt><trkpt lat="39.0644914" lon="16.2915912"><ele>644.0</ele><time>2026-05-02T10:58:02.836Z</time></trkpt><trkpt lat="39.0644455" lon="16.2916547"><ele>644.0</ele><time>2026-05-02T10:58:05.736Z</time></trkpt><trkpt lat="39.0644084" lon="16.2917271"><ele>644.0</ele><time>2026-05-02T10:58:08.812Z</time></trkpt><trkpt lat="39.0643824" lon="16.2918046"><ele>641.5714285714286</ele><time>2026-05-02T10:58:11.836Z</time></trkpt><trkpt lat="39.0643531" lon="16.2918889"><ele>639.1428571428571</ele><time>2026-05-02T10:58:14.754Z</time></trkpt><trkpt lat="39.0642918" lon="16.2919633"><ele>636.7142857142858</ele><time>2026-05-02T10:58:18.836Z</time></trkpt><trkpt lat="39.0642359" lon="16.2920097"><ele>634.2857142857142</ele><time>2026-05-02T10:58:21.837Z</time></trkpt><trkpt lat="39.0641915" lon="16.2920762"><ele>631.8571428571429</ele><time>2026-05-02T10:58:24.836Z</time></trkpt><trkpt lat="39.0641789" lon="16.2921706"><ele>629.4285714285714</ele><time>2026-05-02T10:58:27.836Z</time></trkpt><trkpt lat="39.0641903" lon="16.292257"><ele>627.0</ele><time>2026-05-02T10:58:30.836Z</time></trkpt><trkpt lat="39.0642057" lon="16.2923364"><ele>624.1428571428571</ele><time>2026-05-02T10:58:33.836Z</time></trkpt><trkpt lat="39.0642217" lon="16.2924177"><ele>621.2857142857142</ele><time>2026-05-02T10:58:36.837Z</time></trkpt><trkpt lat="39.0642369" lon="16.292515"><ele>618.4285714285713</ele><time>2026-05-02T10:58:39.836Z</time></trkpt><trkpt lat="39.0642467" lon="16.2926112"><ele>615.5714285714286</ele><time>2026-05-02T10:58:42.837Z</time></trkpt><trkpt lat="39.0642438" lon="16.2927034"><ele>612.7142857142857</ele><time>2026-05-02T10:58:45.836Z</time></trkpt><trkpt lat="39.0642319" lon="16.292794"><ele>609.8571428571428</ele><time>2026-05-02T10:58:48.836Z</time></trkpt><trkpt lat="39.0642217" lon="16.2928813"><ele>607.0</ele><time>2026-05-02T10:58:51.836Z</time></trkpt><trkpt lat="39.0642306" lon="16.2929642"><ele>607.0</ele><time>2026-05-02T10:58:54.859Z</time></trkpt><trkpt lat="39.0642549" lon="16.2930545"><ele>607.0</ele><time>2026-05-02T10:58:57.812Z</time></trkpt><trkpt lat="39.0642839" lon="16.2931485"><ele>607.0</ele><time>2026-05-02T10:59:01.836Z</time></trkpt><trkpt lat="39.0642735" lon="16.2932485"><ele>607.0</ele><time>2026-05-02T10:59:05.836Z</time></trkpt><trkpt lat="39.0642299" lon="16.2933405"><ele>607.0</ele><time>2026-05-02T10:59:09.756Z</time></trkpt><trkpt lat="39.0641675" lon="16.2934083"><ele>607.0</ele><time>2026-05-02T10:59:12.754Z</time></trkpt><trkpt lat="39.0641055" lon="16.2934762"><ele>608.9999999999999</ele><time>2026-05-02T10:59:15.836Z</time></trkpt><trkpt lat="39.0640464" lon="16.293531"><ele>611.0</ele><time>2026-05-02T10:59:18.836Z</time></trkpt><trkpt lat="39.0639915" lon="16.2935757"><ele>613.0</ele><time>2026-05-02T10:59:21.836Z</time></trkpt><trkpt lat="39.0639353" lon="16.2936228"><ele>615.0</ele><time>2026-05-02T10:59:24.836Z</time></trkpt><trkpt lat="39.0638704" lon="16.2936538"><ele>617.0</ele><time>2026-05-02T10:59:27.836Z</time></trkpt><trkpt lat="39.0637969" lon="16.2936595"><ele>618.9999999999999</ele><time>2026-05-02T10:59:30.836Z</time></trkpt><trkpt lat="39.0637246" lon="16.2936637"><ele>621.0</ele><time>2026-05-02T10:59:33.836Z</time></trkpt><trkpt lat="39.063654" lon="16.2936925"><ele>620.9999999999999</ele><time>2026-05-02T10:59:36.836Z</time></trkpt><trkpt lat="39.0636081" lon="16.2937666"><ele>621.0</ele><time>2026-05-02T10:59:39.8Z</time></trkpt><trkpt lat="39.0636302" lon="16.2938655"><ele>621.0</ele><time>2026-05-02T10:59:42.836Z</time></trkpt><trkpt lat="39.063678" lon="16.2939277"><ele>621.0</ele><time>2026-05-02T10:59:45.836Z</time></trkpt><trkpt lat="39.0637327" lon="16.2939907"><ele>621.0</ele><time>2026-05-02T10:59:50.838Z</time></trkpt><trkpt lat="39.0637836" lon="16.294065"><ele>620.9999999999999</ele><time>2026-05-02T10:59:55.836Z</time></trkpt><trkpt lat="39.0638385" lon="16.2941297"><ele>621.0</ele><time>2026-05-02T11:00:00.836Z</time></trkpt><trkpt lat="39.0638951" lon="16.2941904"><ele>619.9999999999999</ele><time>2026-05-02T11:00:05.836Z</time></trkpt><trkpt lat="39.0639421" lon="16.2942557"><ele>619.0</ele><time>2026-05-02T11:00:10.836Z</time></trkpt><trkpt lat="39.0639859" lon="16.2943234"><ele>618.0</ele><time>2026-05-02T11:00:15.836Z</time></trkpt><trkpt lat="39.0640265" lon="16.2943883"><ele>617.0</ele><time>2026-05-02T11:00:20.836Z</time></trkpt><trkpt lat="39.0640692" lon="16.2944504"><ele>616.0</ele><time>2026-05-02T11:00:25.798Z</time></trkpt><trkpt lat="39.0641033" lon="16.2945193"><ele>614.9999999999999</ele><time>2026-05-02T11:00:30.731Z</time></trkpt><trkpt lat="39.0641385" lon="16.2945905"><ele>614.0</ele><time>2026-05-02T11:00:34.837Z</time></trkpt><trkpt lat="39.0641746" lon="16.2946735"><ele>611.5714285714286</ele><time>2026-05-02T11:00:37.865Z</time></trkpt><trkpt lat="39.0642054" lon="16.2947535"><ele>609.1428571428571</ele><time>2026-05-02T11:00:40.761Z</time></trkpt><trkpt lat="39.0642291" lon="16.2948498"><ele>606.7142857142858</ele><time>2026-05-02T11:00:43.836Z</time></trkpt><trkpt lat="39.0642436" lon="16.2949465"><ele>604.2857142857142</ele><time>2026-05-02T11:00:46.837Z</time></trkpt><trkpt lat="39.0642632" lon="16.2950331"><ele>601.8571428571429</ele><time>2026-05-02T11:00:49.836Z</time></trkpt><trkpt lat="39.0643014" lon="16.2951112"><ele>599.4285714285714</ele><time>2026-05-02T11:00:52.761Z</time></trkpt><trkpt lat="39.0643531" lon="16.2951813"><ele>597.0</ele><time>2026-05-02T11:00:55.837Z</time></trkpt><trkpt lat="39.0643976" lon="16.2952516"><ele>597.0000000000001</ele><time>2026-05-02T11:00:58.818Z</time></trkpt><trkpt lat="39.0644235" lon="16.2953395"><ele>597.0</ele><time>2026-05-02T11:01:02.836Z</time></trkpt><trkpt lat="39.0644117" lon="16.2954259"><ele>597.0</ele><time>2026-05-02T11:01:06.836Z</time></trkpt><trkpt lat="39.0644599" lon="16.2954941"><ele>597.0</ele><time>2026-05-02T11:01:10.837Z</time></trkpt><trkpt lat="39.0644983" lon="16.2955725"><ele>597.0</ele><time>2026-05-02T11:01:15.837Z</time></trkpt><trkpt lat="39.0645295" lon="16.295655"><ele>597.0000000000001</ele><time>2026-05-02T11:01:21.836Z</time></trkpt><trkpt lat="39.0645503" lon="16.2957426"><ele>597.0</ele><time>2026-05-02T11:01:27.837Z</time></trkpt><trkpt lat="39.0645495" lon="16.295827"><ele>599.1428571428572</ele><time>2026-05-02T11:01:32.836Z</time></trkpt><trkpt lat="39.064522" lon="16.2959206"><ele>601.2857142857143</ele><time>2026-05-02T11:01:38.836Z</time></trkpt><trkpt lat="39.0644778" lon="16.2959902"><ele>603.4285714285714</ele><time>2026-05-02T11:01:44.837Z</time></trkpt><trkpt lat="39.0644301" lon="16.2960467"><ele>605.5714285714287</ele><time>2026-05-02T11:01:49.836Z</time></trkpt><trkpt lat="39.0643755" lon="16.2961071"><ele>607.7142857142858</ele><time>2026-05-02T11:01:55.837Z</time></trkpt><trkpt lat="39.06432" lon="16.2961763"><ele>609.8571428571429</ele><time>2026-05-02T11:02:01.835Z</time></trkpt><trkpt lat="39.0642842" lon="16.2962494"><ele>612.0</ele><time>2026-05-02T11:02:07.835Z</time></trkpt><trkpt lat="39.0642407" lon="16.2963094"><ele>612.0</ele><time>2026-05-02T11:02:12.835Z</time></trkpt><trkpt lat="39.0641941" lon="16.2963815"><ele>612.0</ele><time>2026-05-02T11:02:18.835Z</time></trkpt><trkpt lat="39.0641537" lon="16.296446"><ele>612.0</ele><time>2026-05-02T11:02:23.835Z</time></trkpt><trkpt lat="39.0641114" lon="16.2965217"><ele>612.0</ele><time>2026-05-02T11:02:29.835Z</time></trkpt><trkpt lat="39.0640676" lon="16.2965927"><ele>612.0</ele><time>2026-05-02T11:02:35.835Z</time></trkpt><trkpt lat="39.0640229" lon="16.2966688"><ele>612.0</ele><time>2026-05-02T11:02:41.835Z</time></trkpt><trkpt lat="39.0639939" lon="16.2967416"><ele>612.0</ele><time>2026-05-02T11:02:46.835Z</time></trkpt><trkpt lat="39.0639605" lon="16.2968178"><ele>618.5714285714286</ele><time>2026-05-02T11:02:52.835Z</time></trkpt><trkpt lat="39.0639448" lon="16.2968966"><ele>625.1428571428571</ele><time>2026-05-02T11:02:57.835Z</time></trkpt><trkpt lat="39.0639365" lon="16.2969904"><ele>631.7142857142858</ele><time>2026-05-02T11:03:03.835Z</time></trkpt><trkpt lat="39.063945" lon="16.2970835"><ele>638.2857142857142</ele><time>2026-05-02T11:03:09.835Z</time></trkpt><trkpt lat="39.0639489" lon="16.2971691"><ele>644.8571428571429</ele><time>2026-05-02T11:03:14.835Z</time></trkpt><trkpt lat="39.0639381" lon="16.2972569"><ele>651.4285714285714</ele><time>2026-05-02T11:03:20.835Z</time></trkpt><trkpt lat="39.0639214" lon="16.297336"><ele>658.0</ele><time>2026-05-02T11:03:25.821Z</time></trkpt><trkpt lat="39.0639049" lon="16.2974204"><ele>658.0</ele><time>2026-05-02T11:03:31.835Z</time></trkpt><trkpt lat="39.0638949" lon="16.2975043"><ele>658.0</ele><time>2026-05-02T11:03:36.835Z</time></trkpt><trkpt lat="39.0638756" lon="16.2975916"><ele>658.0</ele><time>2026-05-02T11:03:42.835Z</time></trkpt><trkpt lat="39.063863" lon="16.2976862"><ele>658.0</ele><time>2026-05-02T11:03:48.835Z</time></trkpt><trkpt lat="39.063846" lon="16.2977736"><ele>658.0</ele><time>2026-05-02T11:03:53.822Z</time></trkpt><trkpt lat="39.0637974" lon="16.2978416"><ele>658.0</ele><time>2026-05-02T11:03:59.835Z</time></trkpt><trkpt lat="39.0637738" lon="16.2979235"><ele>658.0</ele><time>2026-05-02T11:04:04.835Z</time></trkpt><trkpt lat="39.0637653" lon="16.2980114"><ele>656.5714285714286</ele><time>2026-05-02T11:04:09.835Z</time></trkpt><trkpt lat="39.0637567" lon="16.2980946"><ele>655.1428571428571</ele><time>2026-05-02T11:04:14.835Z</time></trkpt><trkpt lat="39.0637268" lon="16.2981763"><ele>653.7142857142858</ele><time>2026-05-02T11:04:19.835Z</time></trkpt><trkpt lat="39.0636906" lon="16.2982562"><ele>652.2857142857142</ele><time>2026-05-02T11:04:24.835Z</time></trkpt><trkpt lat="39.0636342" lon="16.2983186"><ele>650.8571428571429</ele><time>2026-05-02T11:04:30.835Z</time></trkpt><trkpt lat="39.0636305" lon="16.2984029"><ele>649.4285714285714</ele><time>2026-05-02T11:04:34.835Z</time></trkpt><trkpt lat="39.0636251" lon="16.2985031"><ele>648.0</ele><time>2026-05-02T11:04:40.837Z</time></trkpt><trkpt lat="39.0635998" lon="16.2985808"><ele>648.0</ele><time>2026-05-02T11:04:44.835Z</time></trkpt><trkpt lat="39.0635863" lon="16.298669"><ele>648.0</ele><time>2026-05-02T11:04:49.835Z</time></trkpt><trkpt lat="39.0635663" lon="16.2987565"><ele>648.0</ele><time>2026-05-02T11:04:54.835Z</time></trkpt><trkpt lat="39.063555" lon="16.2988484"><ele>648.0</ele><time>2026-05-02T11:04:59.801Z</time></trkpt><trkpt lat="39.0635447" lon="16.2989388"><ele>648.0</ele><time>2026-05-02T11:05:04.82Z</time></trkpt><trkpt lat="39.0635247" lon="16.2990178"><ele>648.0</ele><time>2026-05-02T11:05:09.835Z</time></trkpt><trkpt lat="39.0635003" lon="16.299098"><ele>648.0</ele><time>2026-05-02T11:05:14.835Z</time></trkpt><trkpt lat="39.0634883" lon="16.2991856"><ele>647.8571428571429</ele><time>2026-05-02T11:05:19.835Z</time></trkpt><trkpt lat="39.0634778" lon="16.2992783"><ele>647.7142857142857</ele><time>2026-05-02T11:05:24.785Z</time></trkpt><trkpt lat="39.0634641" lon="16.2993669"><ele>647.5714285714286</ele><time>2026-05-02T11:05:29.757Z</time></trkpt><trkpt lat="39.0634343" lon="16.2994522"><ele>647.4285714285714</ele><time>2026-05-02T11:05:34.556Z</time></trkpt><trkpt lat="39.0634042" lon="16.2995386"><ele>647.2857142857143</ele><time>2026-05-02T11:05:39.282Z</time></trkpt><trkpt lat="39.0633879" lon="16.2996189"><ele>647.1428571428571</ele><time>2026-05-02T11:05:43.024Z</time></trkpt><trkpt lat="39.0633804" lon="16.2997081"><ele>647.0</ele><time>2026-05-02T11:05:47.318Z</time></trkpt><trkpt lat="39.0633844" lon="16.2997928"><ele>647.0</ele><time>2026-05-02T11:05:51.377Z</time></trkpt><trkpt lat="39.0634059" lon="16.2998788"><ele>647.0</ele><time>2026-05-02T11:05:56.062Z</time></trkpt><trkpt lat="39.0634551" lon="16.299946"><ele>647.0</ele><time>2026-05-02T11:06:00.382Z</time></trkpt><trkpt lat="39.0635166" lon="16.2999883"><ele>647.0</ele><time>2026-05-02T11:06:04.435Z</time></trkpt><trkpt lat="39.0635873" lon="16.3000153"><ele>647.0</ele><time>2026-05-02T11:06:09.273Z</time></trkpt><trkpt lat="39.0636576" lon="16.3000263"><ele>647.0</ele><time>2026-05-02T11:06:14.159Z</time></trkpt><trkpt lat="39.0637279" lon="16.3000357"><ele>647.0</ele><time>2026-05-02T11:06:18.838Z</time></trkpt><trkpt lat="39.0638046" lon="16.300044"><ele>647.0</ele><time>2026-05-02T11:06:23.835Z</time></trkpt><trkpt lat="39.0638791" lon="16.300047"><ele>647.0</ele><time>2026-05-02T11:06:28.835Z</time></trkpt><trkpt lat="39.0639486" lon="16.3000499"><ele>647.0</ele><time>2026-05-02T11:06:33.835Z</time></trkpt><trkpt lat="39.064016" lon="16.3000483"><ele>647.0</ele><time>2026-05-02T11:06:38.836Z</time></trkpt><trkpt lat="39.0640824" lon="16.3000002"><ele>647.0</ele><time>2026-05-02T11:06:43.782Z</time></trkpt><trkpt lat="39.0641358" lon="16.2999365"><ele>647.0</ele><time>2026-05-02T11:06:46.835Z</time></trkpt><trkpt lat="39.0641925" lon="16.299881"><ele>647.0</ele><time>2026-05-02T11:06:49.836Z</time></trkpt><trkpt lat="39.0642545" lon="16.2998261"><ele>646.1666666666666</ele><time>2026-05-02T11:06:52.835Z</time></trkpt><trkpt lat="39.0643196" lon="16.2997724"><ele>645.3333333333333</ele><time>2026-05-02T11:06:55.835Z</time></trkpt><trkpt lat="39.0643754" lon="16.2997042"><ele>644.5</ele><time>2026-05-02T11:06:58.835Z</time></trkpt><trkpt lat="39.0644251" lon="16.2996262"><ele>643.6666666666666</ele><time>2026-05-02T11:07:01.855Z</time></trkpt><trkpt lat="39.0644579" lon="16.2995403"><ele>642.8333333333334</ele><time>2026-05-02T11:07:04.82Z</time></trkpt><trkpt lat="39.0644929" lon="16.299457"><ele>642.0</ele><time>2026-05-02T11:07:07.835Z</time></trkpt><trkpt lat="39.0645232" lon="16.2993703"><ele>638.8571428571428</ele><time>2026-05-02T11:07:10.836Z</time></trkpt><trkpt lat="39.0645526" lon="16.2992803"><ele>635.7142857142857</ele><time>2026-05-02T11:07:13.84Z</time></trkpt><trkpt lat="39.0645853" lon="16.2991942"><ele>632.5714285714286</ele><time>2026-05-02T11:07:16.835Z</time></trkpt><trkpt lat="39.0646079" lon="16.2991028"><ele>629.4285714285713</ele><time>2026-05-02T11:07:19.835Z</time></trkpt><trkpt lat="39.0646226" lon="16.2990098"><ele>626.2857142857142</ele><time>2026-05-02T11:07:22.835Z</time></trkpt><trkpt lat="39.0646352" lon="16.2989165"><ele>623.1428571428571</ele><time>2026-05-02T11:07:25.835Z</time></trkpt><trkpt lat="39.0646468" lon="16.2988264"><ele>620.0</ele><time>2026-05-02T11:07:28.836Z</time></trkpt><trkpt lat="39.0646533" lon="16.2987349"><ele>619.4285714285714</ele><time>2026-05-02T11:07:31.835Z</time></trkpt><trkpt lat="39.0646646" lon="16.2986432"><ele>618.8571428571429</ele><time>2026-05-02T11:07:34.835Z</time></trkpt><trkpt lat="39.0646889" lon="16.298555"><ele>618.2857142857142</ele><time>2026-05-02T11:07:37.831Z</time></trkpt><trkpt lat="39.0647229" lon="16.2984694"><ele>617.7142857142858</ele><time>2026-05-02T11:07:40.793Z</time></trkpt><trkpt lat="39.0647694" lon="16.2983873"><ele>617.1428571428571</ele><time>2026-05-02T11:07:43.835Z</time></trkpt><trkpt lat="39.0648126" lon="16.298305"><ele>616.5714285714286</ele><time>2026-05-02T11:07:46.836Z</time></trkpt><trkpt lat="39.0648657" lon="16.2982389"><ele>616.0</ele><time>2026-05-02T11:07:49.794Z</time></trkpt><trkpt lat="39.0649134" lon="16.2981597"><ele>616.5714285714286</ele><time>2026-05-02T11:07:52.835Z</time></trkpt><trkpt lat="39.0649547" lon="16.2980958"><ele>617.1428571428571</ele><time>2026-05-02T11:07:55.835Z</time></trkpt><trkpt lat="39.0650094" lon="16.2980412"><ele>617.7142857142858</ele><time>2026-05-02T11:07:58.835Z</time></trkpt><trkpt lat="39.0650743" lon="16.2980224"><ele>618.2857142857142</ele><time>2026-05-02T11:08:01.835Z</time></trkpt><trkpt lat="39.0651432" lon="16.2980401"><ele>618.8571428571429</ele><time>2026-05-02T11:08:06.835Z</time></trkpt><trkpt lat="39.0652235" lon="16.2980613"><ele>619.4285714285714</ele><time>2026-05-02T11:08:10.835Z</time></trkpt><trkpt lat="39.0652962" lon="16.298089"><ele>620.0</ele><time>2026-05-02T11:08:13.799Z</time></trkpt><trkpt lat="39.0653696" lon="16.2981374"><ele>620.0</ele><time>2026-05-02T11:08:16.836Z</time></trkpt><trkpt lat="39.0654208" lon="16.2982141"><ele>620.0</ele><time>2026-05-02T11:08:19.836Z</time></trkpt><trkpt lat="39.0654781" lon="16.2982893"><ele>620.0</ele><time>2026-05-02T11:08:22.796Z</time></trkpt><trkpt lat="39.0655345" lon="16.2983314"><ele>620.0</ele><time>2026-05-02T11:08:24.835Z</time></trkpt><trkpt lat="39.065603" lon="16.2983974"><ele>620.0</ele><time>2026-05-02T11:08:27.777Z</time></trkpt><trkpt lat="39.0656578" lon="16.2984585"><ele>620.0</ele><time>2026-05-02T11:08:30.835Z</time></trkpt><trkpt lat="39.0657034" lon="16.2985267"><ele>620.0</ele><time>2026-05-02T11:08:33.835Z</time></trkpt><trkpt lat="39.065746" lon="16.2985965"><ele>620.0</ele><time>2026-05-02T11:08:36.835Z</time></trkpt><trkpt lat="39.065793" lon="16.2986692"><ele>620.0</ele><time>2026-05-02T11:08:39.834Z</time></trkpt><trkpt lat="39.0658421" lon="16.2987381"><ele>620.0</ele><time>2026-05-02T11:08:42.761Z</time></trkpt><trkpt lat="39.0659172" lon="16.2987901"><ele>620.0</ele><time>2026-05-02T11:08:45.835Z</time></trkpt><trkpt lat="39.0659941" lon="16.2987859"><ele>620.0</ele><time>2026-05-02T11:08:48.836Z</time></trkpt><trkpt lat="39.0660447" lon="16.2987017"><ele>618.8333333333333</ele><time>2026-05-02T11:08:51.835Z</time></trkpt><trkpt lat="39.066077" lon="16.298608"><ele>617.6666666666666</ele><time>2026-05-02T11:08:54.835Z</time></trkpt><trkpt lat="39.0661064" lon="16.2985147"><ele>616.5</ele><time>2026-05-02T11:08:57.835Z</time></trkpt><trkpt lat="39.0661398" lon="16.2984212"><ele>615.3333333333334</ele><time>2026-05-02T11:09:00.834Z</time></trkpt><trkpt lat="39.0661715" lon="16.2983347"><ele>614.1666666666667</ele><time>2026-05-02T11:09:03.739Z</time></trkpt><trkpt lat="39.0661948" lon="16.298237"><ele>613.0</ele><time>2026-05-02T11:09:06.835Z</time></trkpt><trkpt lat="39.0662088" lon="16.2981359"><ele>609.0</ele><time>2026-05-02T11:09:09.835Z</time></trkpt><trkpt lat="39.0662211" lon="16.2980346"><ele>605.0</ele><time>2026-05-02T11:09:12.835Z</time></trkpt><trkpt lat="39.0662248" lon="16.2979335"><ele>601.0</ele><time>2026-05-02T11:09:15.835Z</time></trkpt><trkpt lat="39.066227" lon="16.2978316"><ele>597.0</ele><time>2026-05-02T11:09:18.837Z</time></trkpt><trkpt lat="39.0662348" lon="16.2977212"><ele>593.0</ele><time>2026-05-02T11:09:21.835Z</time></trkpt><trkpt lat="39.0662353" lon="16.2976229"><ele>589.0</ele><time>2026-05-02T11:09:24.838Z</time></trkpt><trkpt lat="39.0662485" lon="16.2975231"><ele>589.0</ele><time>2026-05-02T11:09:27.835Z</time></trkpt><trkpt lat="39.066281" lon="16.2974319"><ele>589.0</ele><time>2026-05-02T11:09:30.835Z</time></trkpt><trkpt lat="39.0663393" lon="16.2973704"><ele>589.0</ele><time>2026-05-02T11:09:33.835Z</time></trkpt><trkpt lat="39.0664095" lon="16.2973304"><ele>589.0</ele><time>2026-05-02T11:09:36.781Z</time></trkpt><trkpt lat="39.0664775" lon="16.2972878"><ele>589.0</ele><time>2026-05-02T11:09:39.835Z</time></trkpt><trkpt lat="39.0665417" lon="16.2972349"><ele>589.0</ele><time>2026-05-02T11:09:42.835Z</time></trkpt><trkpt lat="39.0666067" lon="16.2971716"><ele>589.3333333333334</ele><time>2026-05-02T11:09:45.835Z</time></trkpt><trkpt lat="39.0666687" lon="16.2971114"><ele>589.6666666666667</ele><time>2026-05-02T11:09:48.817Z</time></trkpt><trkpt lat="39.0667289" lon="16.2970467"><ele>590.0</ele><time>2026-05-02T11:09:51.835Z</time></trkpt><trkpt lat="39.0667948" lon="16.2969918"><ele>590.3333333333334</ele><time>2026-05-02T11:09:54.835Z</time></trkpt><trkpt lat="39.066859" lon="16.2969362"><ele>590.6666666666666</ele><time>2026-05-02T11:09:57.817Z</time></trkpt><trkpt lat="39.0669128" lon="16.2968683"><ele>591.0</ele><time>2026-05-02T11:10:00.835Z</time></trkpt><trkpt lat="39.0669558" lon="16.2967868"><ele>591.0</ele><time>2026-05-02T11:10:03.838Z</time></trkpt><trkpt lat="39.0669719" lon="16.2966847"><ele>591.0</ele><time>2026-05-02T11:10:06.835Z</time></trkpt><trkpt lat="39.0669849" lon="16.2965876"><ele>591.0</ele><time>2026-05-02T11:10:09.836Z</time></trkpt><trkpt lat="39.0670003" lon="16.2964975"><ele>591.0</ele><time>2026-05-02T11:10:12.835Z</time></trkpt><trkpt lat="39.0670153" lon="16.2964083"><ele>591.0</ele><time>2026-05-02T11:10:15.835Z</time></trkpt><trkpt lat="39.0670293" lon="16.2963179"><ele>591.0</ele><time>2026-05-02T11:10:18.818Z</time></trkpt><trkpt lat="39.0670428" lon="16.2962298"><ele>591.0</ele><time>2026-05-02T11:10:21.741Z</time></trkpt><trkpt lat="39.0670655" lon="16.2961361"><ele>588.1666666666666</ele><time>2026-05-02T11:10:24.835Z</time></trkpt><trkpt lat="39.067082" lon="16.2960434"><ele>585.3333333333334</ele><time>2026-05-02T11:10:27.779Z</time></trkpt><trkpt lat="39.0671015" lon="16.2959455"><ele>582.5</ele><time>2026-05-02T11:10:30.835Z</time></trkpt><trkpt lat="39.0671219" lon="16.2958526"><ele>579.6666666666667</ele><time>2026-05-02T11:10:33.835Z</time></trkpt><trkpt lat="39.0671377" lon="16.2957603"><ele>576.8333333333334</ele><time>2026-05-02T11:10:36.838Z</time></trkpt><trkpt lat="39.0671641" lon="16.2956406"><ele>574.0</ele><time>2026-05-02T11:10:40.838Z</time></trkpt><trkpt lat="39.0671827" lon="16.2955484"><ele>572.1666666666667</ele><time>2026-05-02T11:10:43.835Z</time></trkpt><trkpt lat="39.0671996" lon="16.2954555"><ele>570.3333333333334</ele><time>2026-05-02T11:10:46.835Z</time></trkpt><trkpt lat="39.0672119" lon="16.2953633"><ele>568.5</ele><time>2026-05-02T11:10:49.836Z</time></trkpt><trkpt lat="39.0672235" lon="16.2952735"><ele>566.6666666666666</ele><time>2026-05-02T11:10:52.799Z</time></trkpt><trkpt lat="39.0672376" lon="16.2951776"><ele>564.8333333333333</ele><time>2026-05-02T11:10:55.835Z</time></trkpt><trkpt lat="39.067249" lon="16.295081"><ele>563.0</ele><time>2026-05-02T11:10:58.835Z</time></trkpt><trkpt lat="39.0672681" lon="16.2949692"><ele>563.0</ele><time>2026-05-02T11:11:01.836Z</time></trkpt><trkpt lat="39.0672944" lon="16.294863"><ele>563.0</ele><time>2026-05-02T11:11:05.86Z</time></trkpt><trkpt lat="39.0673128" lon="16.2947786"><ele>563.0</ele><time>2026-05-02T11:11:08.835Z</time></trkpt><trkpt lat="39.0673298" lon="16.2946882"><ele>563.0</ele><time>2026-05-02T11:11:11.835Z</time></trkpt><trkpt lat="39.0673453" lon="16.2945959"><ele>563.0</ele><time>2026-05-02T11:11:14.781Z</time></trkpt><trkpt lat="39.0673597" lon="16.2945042"><ele>563.0</ele><time>2026-05-02T11:11:17.835Z</time></trkpt><trkpt lat="39.0673786" lon="16.2944159"><ele>563.0</ele><time>2026-05-02T11:11:20.836Z</time></trkpt><trkpt lat="39.0674046" lon="16.2943333"><ele>566.2857142857142</ele><time>2026-05-02T11:11:23.835Z</time></trkpt><trkpt lat="39.0674462" lon="16.2942591"><ele>569.5714285714286</ele><time>2026-05-02T11:11:26.765Z</time></trkpt><trkpt lat="39.0675074" lon="16.2942079"><ele>572.8571428571429</ele><time>2026-05-02T11:11:29.835Z</time></trkpt><trkpt lat="39.0675721" lon="16.29417"><ele>576.1428571428571</ele><time>2026-05-02T11:11:32.835Z</time></trkpt><trkpt lat="39.0676358" lon="16.2941374"><ele>579.4285714285714</ele><time>2026-05-02T11:11:35.835Z</time></trkpt><trkpt lat="39.0676964" lon="16.2940962"><ele>582.7142857142857</ele><time>2026-05-02T11:11:38.835Z</time></trkpt><trkpt lat="39.0677471" lon="16.294037"><ele>586.0</ele><time>2026-05-02T11:11:41.836Z</time></trkpt><trkpt lat="39.0677941" lon="16.2939689"><ele>584.4285714285713</ele><time>2026-05-02T11:11:44.799Z</time></trkpt><trkpt lat="39.0678254" lon="16.2938876"><ele>582.8571428571429</ele><time>2026-05-02T11:11:47.762Z</time></trkpt><trkpt lat="39.0678567" lon="16.2938028"><ele>581.2857142857142</ele><time>2026-05-02T11:11:50.835Z</time></trkpt><trkpt lat="39.0678796" lon="16.2937126"><ele>579.7142857142857</ele><time>2026-05-02T11:11:53.835Z</time></trkpt><trkpt lat="39.0678958" lon="16.293622"><ele>578.1428571428571</ele><time>2026-05-02T11:11:56.835Z</time></trkpt><trkpt lat="39.0679189" lon="16.2935336"><ele>576.5714285714286</ele><time>2026-05-02T11:11:59.862Z</time></trkpt><trkpt lat="39.0679395" lon="16.2934462"><ele>575.0</ele><time>2026-05-02T11:12:02.818Z</time></trkpt><trkpt lat="39.0679742" lon="16.2933597"><ele>575.0</ele><time>2026-05-02T11:12:05.835Z</time></trkpt><trkpt lat="39.0680095" lon="16.2932696"><ele>575.0</ele><time>2026-05-02T11:12:08.835Z</time></trkpt><trkpt lat="39.068029" lon="16.2931757"><ele>575.0</ele><time>2026-05-02T11:12:11.8Z</time></trkpt><trkpt lat="39.0680546" lon="16.2930838"><ele>575.0</ele><time>2026-05-02T11:12:14.835Z</time></trkpt><trkpt lat="39.0680835" lon="16.2929908"><ele>575.0</ele><time>2026-05-02T11:12:17.819Z</time></trkpt><trkpt lat="39.0681107" lon="16.2928967"><ele>575.0</ele><time>2026-05-02T11:12:20.835Z</time></trkpt><trkpt lat="39.0681368" lon="16.2928032"><ele>575.6666666666666</ele><time>2026-05-02T11:12:23.839Z</time></trkpt><trkpt lat="39.0681665" lon="16.292709"><ele>576.3333333333333</ele><time>2026-05-02T11:12:26.835Z</time></trkpt><trkpt lat="39.0681886" lon="16.2926154"><ele>577.0</ele><time>2026-05-02T11:12:29.835Z</time></trkpt><trkpt lat="39.0682116" lon="16.2925252"><ele>577.6666666666666</ele><time>2026-05-02T11:12:32.781Z</time></trkpt><trkpt lat="39.0682393" lon="16.2924327"><ele>578.3333333333334</ele><time>2026-05-02T11:12:35.835Z</time></trkpt><trkpt lat="39.0682656" lon="16.2923391"><ele>579.0</ele><time>2026-05-02T11:12:38.835Z</time></trkpt><trkpt lat="39.0682921" lon="16.2922534"><ele>578.9999999999999</ele><time>2026-05-02T11:12:41.751Z</time></trkpt><trkpt lat="39.0683238" lon="16.2921622"><ele>579.0</ele><time>2026-05-02T11:12:44.835Z</time></trkpt><trkpt lat="39.0683392" lon="16.2920718"><ele>579.0</ele><time>2026-05-02T11:12:47.877Z</time></trkpt><trkpt lat="39.068362" lon="16.2919849"><ele>579.0</ele><time>2026-05-02T11:12:50.781Z</time></trkpt><trkpt lat="39.0683904" lon="16.2918936"><ele>579.0</ele><time>2026-05-02T11:12:53.834Z</time></trkpt><trkpt lat="39.068421" lon="16.2918076"><ele>578.9999999999999</ele><time>2026-05-02T11:12:56.834Z</time></trkpt><trkpt lat="39.0684546" lon="16.2917291"><ele>579.0</ele><time>2026-05-02T11:12:59.801Z</time></trkpt><trkpt lat="39.0684875" lon="16.2916417"><ele>578.9999999999999</ele><time>2026-05-02T11:13:02.835Z</time></trkpt><trkpt lat="39.0685175" lon="16.2915542"><ele>579.0</ele><time>2026-05-02T11:13:05.834Z</time></trkpt><trkpt lat="39.0685461" lon="16.291471"><ele>579.0</ele><time>2026-05-02T11:13:08.835Z</time></trkpt><trkpt lat="39.0685767" lon="16.2913891"><ele>579.0</ele><time>2026-05-02T11:13:11.818Z</time></trkpt><trkpt lat="39.0686029" lon="16.2913059"><ele>579.0</ele><time>2026-05-02T11:13:14.835Z</time></trkpt><trkpt lat="39.0686441" lon="16.2912393"><ele>578.9999999999999</ele><time>2026-05-02T11:13:17.834Z</time></trkpt><trkpt lat="39.0686657" lon="16.2911366"><ele>579.0</ele><time>2026-05-02T11:13:21.781Z</time></trkpt><trkpt lat="39.0686673" lon="16.2910393"><ele>574.5</ele><time>2026-05-02T11:13:24.835Z</time></trkpt><trkpt lat="39.0686959" lon="16.290955"><ele>570.0</ele><time>2026-05-02T11:13:27.834Z</time></trkpt><trkpt lat="39.0687307" lon="16.2908694"><ele>565.5</ele><time>2026-05-02T11:13:30.834Z</time></trkpt><trkpt lat="39.0687646" lon="16.2907802"><ele>561.0</ele><time>2026-05-02T11:13:33.781Z</time></trkpt><trkpt lat="39.0688015" lon="16.290693"><ele>556.5</ele><time>2026-05-02T11:13:36.834Z</time></trkpt><trkpt lat="39.0688516" lon="16.2906175"><ele>552.0</ele><time>2026-05-02T11:13:39.834Z</time></trkpt><trkpt lat="39.0689046" lon="16.2905457"><ele>548.8333333333334</ele><time>2026-05-02T11:13:42.8Z</time></trkpt><trkpt lat="39.0689668" lon="16.2904867"><ele>545.6666666666666</ele><time>2026-05-02T11:13:45.834Z</time></trkpt><trkpt lat="39.0690238" lon="16.290414"><ele>542.5</ele><time>2026-05-02T11:13:48.834Z</time></trkpt><trkpt lat="39.0690756" lon="16.290338"><ele>539.3333333333333</ele><time>2026-05-02T11:13:51.762Z</time></trkpt><trkpt lat="39.0691295" lon="16.2902721"><ele>536.1666666666666</ele><time>2026-05-02T11:13:54.834Z</time></trkpt><trkpt lat="39.0691804" lon="16.290201"><ele>533.0</ele><time>2026-05-02T11:13:57.835Z</time></trkpt><trkpt lat="39.0692363" lon="16.2901401"><ele>535.0</ele><time>2026-05-02T11:14:00.78Z</time></trkpt><trkpt lat="39.0692948" lon="16.2900786"><ele>537.0</ele><time>2026-05-02T11:14:03.834Z</time></trkpt><trkpt lat="39.0693475" lon="16.2900117"><ele>539.0</ele><time>2026-05-02T11:14:06.859Z</time></trkpt><trkpt lat="39.0694039" lon="16.2899491"><ele>541.0</ele><time>2026-05-02T11:14:09.834Z</time></trkpt><trkpt lat="39.0694439" lon="16.2898659"><ele>543.0</ele><time>2026-05-02T11:14:12.862Z</time></trkpt><trkpt lat="39.0694697" lon="16.2897661"><ele>545.0</ele><time>2026-05-02T11:14:15.834Z</time></trkpt><trkpt lat="39.0694967" lon="16.2896711"><ele>545.0</ele><time>2026-05-02T11:14:18.818Z</time></trkpt><trkpt lat="39.069521" lon="16.2895738"><ele>545.0</ele><time>2026-05-02T11:14:21.834Z</time></trkpt><trkpt lat="39.0695515" lon="16.2894782"><ele>545.0</ele><time>2026-05-02T11:14:24.834Z</time></trkpt><trkpt lat="39.0695919" lon="16.2893924"><ele>545.0</ele><time>2026-05-02T11:14:27.834Z</time></trkpt><trkpt lat="39.0696433" lon="16.2893243"><ele>545.0</ele><time>2026-05-02T11:14:30.834Z</time></trkpt><trkpt lat="39.0697032" lon="16.2892725"><ele>545.0</ele><time>2026-05-02T11:14:33.834Z</time></trkpt><trkpt lat="39.069772" lon="16.2892406"><ele>545.0</ele><time>2026-05-02T11:14:36.798Z</time></trkpt><trkpt lat="39.0698449" lon="16.2892342"><ele>545.0</ele><time>2026-05-02T11:14:39.834Z</time></trkpt><trkpt lat="39.0699152" lon="16.2892144"><ele>545.0</ele><time>2026-05-02T11:14:42.834Z</time></trkpt><trkpt lat="39.0699872" lon="16.2891959"><ele>545.0</ele><time>2026-05-02T11:14:45.834Z</time></trkpt><trkpt lat="39.0700617" lon="16.2891777"><ele>545.0</ele><time>2026-05-02T11:14:49.834Z</time></trkpt><trkpt lat="39.0701059" lon="16.2891097"><ele>545.0</ele><time>2026-05-02T11:14:54.834Z</time></trkpt><trkpt lat="39.0701191" lon="16.2890102"><ele>545.0</ele><time>2026-05-02T11:14:59.676Z</time></trkpt><trkpt lat="39.070134" lon="16.2889231"><ele>546.4285714285714</ele><time>2026-05-02T11:15:03.836Z</time></trkpt><trkpt lat="39.0701596" lon="16.2888436"><ele>547.8571428571429</ele><time>2026-05-02T11:15:07.834Z</time></trkpt><trkpt lat="39.0702079" lon="16.2887833"><ele>549.2857142857143</ele><time>2026-05-02T11:15:11.835Z</time></trkpt><trkpt lat="39.0702533" lon="16.2887247"><ele>550.7142857142858</ele><time>2026-05-02T11:15:15.834Z</time></trkpt><trkpt lat="39.0703084" lon="16.2886636"><ele>552.1428571428571</ele><time>2026-05-02T11:15:20.834Z</time></trkpt><trkpt lat="39.0703704" lon="16.2886026"><ele>553.5714285714287</ele><time>2026-05-02T11:15:25.834Z</time></trkpt><trkpt lat="39.0704324" lon="16.2885722"><ele>555.0</ele><time>2026-05-02T11:15:29.856Z</time></trkpt><trkpt lat="39.070497" lon="16.2885869"><ele>555.0000000000001</ele><time>2026-05-02T11:15:33.834Z</time></trkpt><trkpt lat="39.0705625" lon="16.288599"><ele>555.0</ele><time>2026-05-02T11:15:37.713Z</time></trkpt><trkpt lat="39.0706306" lon="16.2886433"><ele>555.0</ele><time>2026-05-02T11:15:43.834Z</time></trkpt><trkpt lat="39.0706996" lon="16.2886231"><ele>555.0</ele><time>2026-05-02T11:15:46.835Z</time></trkpt><trkpt lat="39.070764" lon="16.2886452"><ele>555.0</ele><time>2026-05-02T11:15:51.835Z</time></trkpt><trkpt lat="39.0708303" lon="16.2886088"><ele>555.0000000000001</ele><time>2026-05-02T11:15:56.834Z</time></trkpt><trkpt lat="39.0708796" lon="16.2885393"><ele>555.0</ele><time>2026-05-02T11:16:00.798Z</time></trkpt><trkpt lat="39.0708849" lon="16.2884424"><ele>555.0</ele><time>2026-05-02T11:16:03.834Z</time></trkpt><trkpt lat="39.07086" lon="16.2883481"><ele>555.0</ele><time>2026-05-02T11:16:06.834Z</time></trkpt><trkpt lat="39.0708019" lon="16.2882964"><ele>555.0</ele><time>2026-05-02T11:16:09.759Z</time></trkpt><trkpt lat="39.07075" lon="16.2882231"><ele>555.0</ele><time>2026-05-02T11:16:12.834Z</time></trkpt><trkpt lat="39.0707015" lon="16.2881483"><ele>555.0</ele><time>2026-05-02T11:16:15.836Z</time></trkpt><trkpt lat="39.0706599" lon="16.288066"><ele>555.0</ele><time>2026-05-02T11:16:18.834Z</time></trkpt><trkpt lat="39.0706147" lon="16.2879884"><ele>555.3333333333334</ele><time>2026-05-02T11:16:21.834Z</time></trkpt><trkpt lat="39.0705636" lon="16.2879196"><ele>555.6666666666666</ele><time>2026-05-02T11:16:24.836Z</time></trkpt><trkpt lat="39.0705039" lon="16.2878628"><ele>556.0</ele><time>2026-05-02T11:16:27.753Z</time></trkpt><trkpt lat="39.0704561" lon="16.2877855"><ele>556.3333333333333</ele><time>2026-05-02T11:16:30.835Z</time></trkpt><trkpt lat="39.0704392" lon="16.2876932"><ele>556.6666666666666</ele><time>2026-05-02T11:16:33.834Z</time></trkpt><trkpt lat="39.070442" lon="16.2875964"><ele>557.0</ele><time>2026-05-02T11:16:36.799Z</time></trkpt><trkpt lat="39.0704557" lon="16.2874948"><ele>557.0</ele><time>2026-05-02T11:16:39.836Z</time></trkpt><trkpt lat="39.0704676" lon="16.287392"><ele>557.0</ele><time>2026-05-02T11:16:42.836Z</time></trkpt><trkpt lat="39.0704766" lon="16.2872908"><ele>557.0</ele><time>2026-05-02T11:16:45.835Z</time></trkpt><trkpt lat="39.070479" lon="16.2871888"><ele>557.0</ele><time>2026-05-02T11:16:48.834Z</time></trkpt><trkpt lat="39.0704858" lon="16.2870919"><ele>557.0</ele><time>2026-05-02T11:16:51.834Z</time></trkpt><trkpt lat="39.0704908" lon="16.2870075"><ele>557.0</ele><time>2026-05-02T11:16:55.834Z</time></trkpt><trkpt lat="39.0705106" lon="16.2869244"><ele>557.0</ele><time>2026-05-02T11:17:00.834Z</time></trkpt><trkpt lat="39.0705161" lon="16.2868264"><ele>555.2857142857143</ele><time>2026-05-02T11:17:05.835Z</time></trkpt><trkpt lat="39.0705302" lon="16.2867297"><ele>553.5714285714286</ele><time>2026-05-02T11:17:10.835Z</time></trkpt><trkpt lat="39.0705371" lon="16.2866394"><ele>551.8571428571429</ele><time>2026-05-02T11:17:15.834Z</time></trkpt><trkpt lat="39.0705481" lon="16.2865416"><ele>550.1428571428571</ele><time>2026-05-02T11:17:20.834Z</time></trkpt><trkpt lat="39.0705589" lon="16.2864504"><ele>548.4285714285714</ele><time>2026-05-02T11:17:25.835Z</time></trkpt><trkpt lat="39.0705615" lon="16.2863499"><ele>546.7142857142858</ele><time>2026-05-02T11:17:30.835Z</time></trkpt><trkpt lat="39.07057" lon="16.2862673"><ele>545.0</ele><time>2026-05-02T11:17:34.834Z</time></trkpt><trkpt lat="39.070576" lon="16.2861862"><ele>542.8571428571429</ele><time>2026-05-02T11:17:38.715Z</time></trkpt><trkpt lat="39.0705835" lon="16.2861033"><ele>540.7142857142858</ele><time>2026-05-02T11:17:42.513Z</time></trkpt><trkpt lat="39.0706013" lon="16.2860158"><ele>538.5714285714286</ele><time>2026-05-02T11:17:46.799Z</time></trkpt><trkpt lat="39.0706276" lon="16.2859283"><ele>536.4285714285714</ele><time>2026-05-02T11:17:51.834Z</time></trkpt><trkpt lat="39.0706658" lon="16.2858463"><ele>534.2857142857142</ele><time>2026-05-02T11:17:56.835Z</time></trkpt><trkpt lat="39.0707149" lon="16.2857874"><ele>532.1428571428571</ele><time>2026-05-02T11:18:00.834Z</time></trkpt><trkpt lat="39.070774" lon="16.2857562"><ele>530.0</ele><time>2026-05-02T11:18:04.834Z</time></trkpt><trkpt lat="39.0708431" lon="16.2857615"><ele>532.5714285714286</ele><time>2026-05-02T11:18:08.834Z</time></trkpt><trkpt lat="39.0709064" lon="16.2857687"><ele>535.1428571428571</ele><time>2026-05-02T11:18:12.834Z</time></trkpt><trkpt lat="39.0709719" lon="16.2857532"><ele>537.7142857142858</ele><time>2026-05-02T11:18:16.77Z</time></trkpt><trkpt lat="39.0710428" lon="16.2857342"><ele>540.2857142857142</ele><time>2026-05-02T11:18:20.834Z</time></trkpt><trkpt lat="39.0711049" lon="16.2857061"><ele>542.8571428571429</ele><time>2026-05-02T11:18:24.838Z</time></trkpt><trkpt lat="39.0711647" lon="16.2856693"><ele>545.4285714285714</ele><time>2026-05-02T11:18:28.834Z</time></trkpt><trkpt lat="39.0712149" lon="16.285617"><ele>548.0</ele><time>2026-05-02T11:18:32.799Z</time></trkpt><trkpt lat="39.0712733" lon="16.2855752"><ele>548.0000000000001</ele><time>2026-05-02T11:18:36.835Z</time></trkpt><trkpt lat="39.0713258" lon="16.285526"><ele>548.0</ele><time>2026-05-02T11:18:40.819Z</time></trkpt><trkpt lat="39.0713526" lon="16.2854416"><ele>548.0</ele><time>2026-05-02T11:18:44.835Z</time></trkpt><trkpt lat="39.0713785" lon="16.2853588"><ele>548.0</ele><time>2026-05-02T11:18:48.834Z</time></trkpt><trkpt lat="39.0713921" lon="16.2852689"><ele>548.0</ele><time>2026-05-02T11:18:52.834Z</time></trkpt><trkpt lat="39.0714122" lon="16.2851908"><ele>548.0000000000001</ele><time>2026-05-02T11:18:56.834Z</time></trkpt><trkpt lat="39.0713937" lon="16.2850796"><ele>548.0</ele><time>2026-05-02T11:19:14.596Z</time></trkpt><trkpt lat="39.0713995" lon="16.2849968"><ele>548.0000000000001</ele><time>2026-05-02T11:19:17.434Z</time></trkpt><trkpt lat="39.0714252" lon="16.2849121"><ele>548.0</ele><time>2026-05-02T11:19:21.297Z</time></trkpt><trkpt lat="39.0714768" lon="16.2848413"><ele>548.0</ele><time>2026-05-02T11:19:25.135Z</time></trkpt><trkpt lat="39.0715025" lon="16.2847489"><ele>548.0</ele><time>2026-05-02T11:19:30.374Z</time></trkpt><trkpt lat="39.0715229" lon="16.2846713"><ele>548.0</ele><time>2026-05-02T11:19:34.754Z</time></trkpt><trkpt lat="39.0715417" lon="16.2845785"><ele>548.0000000000001</ele><time>2026-05-02T11:19:39.834Z</time></trkpt><trkpt lat="39.0715599" lon="16.2844847"><ele>548.0</ele><time>2026-05-02T11:19:44.835Z</time></trkpt><trkpt lat="39.0715754" lon="16.2844048"><ele>529.0</ele><time>2026-05-02T11:19:49.834Z</time></trkpt></trkseg></trk></gpx>